<?xml version="1.0" encoding="UTF-8" standalone="no" ?>
<gpx xmlns="http://www.topografix.com/GPX/1/1" xmlns:xsi="http://www.w3.org/2001/XMLSchema-instance" xsi:schemaLocation="http://www.topografix.com/GPX/1/1 http://www.topografix.com/GPX/1/1/gpx.xsd" version="1.1" creator="VisuGPX - https://www.visugpx.com">
  <metadata>
    <name>Saut De Bonneille Et Ravin De Valbois</name>
    <desc><![CDATA[Route created on plotaroute.com]]></desc>
  </metadata>
  <trk>
    <name><![CDATA[Saut De Bonneille Et Ravin De Valbois]]></name>
    <trkseg>
      <trkpt lat="47.10185" lon="6.13361">
        <ele>338</ele>
        <time>2022-06-05T00:00:00Z</time>
      </trkpt>
      <trkpt lat="47.10181" lon="6.13359">
        <ele>339</ele>
        <time>2022-06-05T00:00:03Z</time>
      </trkpt>
      <trkpt lat="47.10177" lon="6.13359">
        <ele>339</ele>
        <time>2022-06-05T00:00:07Z</time>
      </trkpt>
      <trkpt lat="47.10174" lon="6.13357">
        <ele>339</ele>
        <time>2022-06-05T00:00:09Z</time>
      </trkpt>
      <trkpt lat="47.1017" lon="6.1336">
        <ele>339</ele>
        <time>2022-06-05T00:00:13Z</time>
      </trkpt>
      <trkpt lat="47.10166" lon="6.13362">
        <ele>340</ele>
        <time>2022-06-05T00:00:16Z</time>
      </trkpt>
      <trkpt lat="47.10162" lon="6.13365">
        <ele>340</ele>
        <time>2022-06-05T00:00:20Z</time>
      </trkpt>
      <trkpt lat="47.10157" lon="6.13382">
        <ele>340</ele>
        <time>2022-06-05T00:00:30Z</time>
      </trkpt>
      <trkpt lat="47.10146" lon="6.13403">
        <ele>341</ele>
        <time>2022-06-05T00:00:44Z</time>
      </trkpt>
      <trkpt lat="47.10126" lon="6.13429">
        <ele>343</ele>
        <time>2022-06-05T00:01:06Z</time>
      </trkpt>
      <trkpt lat="47.10103" lon="6.13447">
        <ele>345</ele>
        <time>2022-06-05T00:01:27Z</time>
      </trkpt>
      <trkpt lat="47.10089" lon="6.13454">
        <ele>346</ele>
        <time>2022-06-05T00:01:39Z</time>
      </trkpt>
      <trkpt lat="47.10078" lon="6.13463">
        <ele>347</ele>
        <time>2022-06-05T00:01:49Z</time>
      </trkpt>
      <trkpt lat="47.10069" lon="6.13472">
        <ele>347</ele>
        <time>2022-06-05T00:01:57Z</time>
      </trkpt>
      <trkpt lat="47.10059" lon="6.13484">
        <ele>347</ele>
        <time>2022-06-05T00:02:08Z</time>
      </trkpt>
      <trkpt lat="47.10048" lon="6.135">
        <ele>347</ele>
        <time>2022-06-05T00:02:20Z</time>
      </trkpt>
      <trkpt lat="47.10045" lon="6.13505">
        <ele>347</ele>
        <time>2022-06-05T00:02:24Z</time>
      </trkpt>
      <trkpt lat="47.10026" lon="6.13525">
        <ele>348</ele>
        <time>2022-06-05T00:02:42Z</time>
      </trkpt>
      <trkpt lat="47.10011" lon="6.13539">
        <ele>348</ele>
        <time>2022-06-05T00:02:57Z</time>
      </trkpt>
      <trkpt lat="47.09998" lon="6.13547">
        <ele>349</ele>
        <time>2022-06-05T00:03:08Z</time>
      </trkpt>
      <trkpt lat="47.09986" lon="6.1355">
        <ele>350</ele>
        <time>2022-06-05T00:03:18Z</time>
      </trkpt>
      <trkpt lat="47.09962" lon="6.13553">
        <ele>351</ele>
        <time>2022-06-05T00:03:37Z</time>
      </trkpt>
      <trkpt lat="47.09935" lon="6.1356">
        <ele>352</ele>
        <time>2022-06-05T00:03:59Z</time>
      </trkpt>
      <trkpt lat="47.09916" lon="6.13564">
        <ele>352</ele>
        <time>2022-06-05T00:04:14Z</time>
      </trkpt>
      <trkpt lat="47.09904" lon="6.13565">
        <ele>352</ele>
        <time>2022-06-05T00:04:24Z</time>
      </trkpt>
      <trkpt lat="47.09877" lon="6.13564">
        <ele>352</ele>
        <time>2022-06-05T00:04:46Z</time>
      </trkpt>
      <trkpt lat="47.09827" lon="6.13554">
        <ele>352</ele>
        <time>2022-06-05T00:05:26Z</time>
      </trkpt>
      <trkpt lat="47.09803" lon="6.13552">
        <ele>353</ele>
        <time>2022-06-05T00:05:45Z</time>
      </trkpt>
      <trkpt lat="47.0977" lon="6.1355">
        <ele>354</ele>
        <time>2022-06-05T00:06:12Z</time>
      </trkpt>
      <trkpt lat="47.09742" lon="6.13547">
        <ele>354</ele>
        <time>2022-06-05T00:06:34Z</time>
      </trkpt>
      <trkpt lat="47.09705" lon="6.1354">
        <ele>354</ele>
        <time>2022-06-05T00:07:04Z</time>
      </trkpt>
      <trkpt lat="47.09679" lon="6.13538">
        <ele>354</ele>
        <time>2022-06-05T00:07:25Z</time>
      </trkpt>
      <trkpt lat="47.09647" lon="6.1354">
        <ele>356</ele>
        <time>2022-06-05T00:07:51Z</time>
      </trkpt>
      <trkpt lat="47.09631" lon="6.13537">
        <ele>357</ele>
        <time>2022-06-05T00:08:04Z</time>
      </trkpt>
      <trkpt lat="47.0961" lon="6.13529">
        <ele>360</ele>
        <time>2022-06-05T00:08:21Z</time>
      </trkpt>
      <trkpt lat="47.09592" lon="6.13519">
        <ele>363</ele>
        <time>2022-06-05T00:08:37Z</time>
      </trkpt>
      <trkpt lat="47.0957" lon="6.13515">
        <ele>364</ele>
        <time>2022-06-05T00:08:54Z</time>
      </trkpt>
      <trkpt lat="47.09546" lon="6.1351">
        <ele>366</ele>
        <time>2022-06-05T00:09:14Z</time>
      </trkpt>
      <trkpt lat="47.09527" lon="6.13505">
        <ele>368</ele>
        <time>2022-06-05T00:09:29Z</time>
      </trkpt>
      <trkpt lat="47.0951" lon="6.13508">
        <ele>368</ele>
        <time>2022-06-05T00:09:43Z</time>
      </trkpt>
      <trkpt lat="47.09489" lon="6.13509">
        <ele>368</ele>
        <time>2022-06-05T00:10:00Z</time>
      </trkpt>
      <trkpt lat="47.09463" lon="6.13503">
        <ele>369</ele>
        <time>2022-06-05T00:10:21Z</time>
      </trkpt>
      <trkpt lat="47.09438" lon="6.135">
        <ele>369</ele>
        <time>2022-06-05T00:10:41Z</time>
      </trkpt>
      <trkpt lat="47.09414" lon="6.13498">
        <ele>370</ele>
        <time>2022-06-05T00:11:00Z</time>
      </trkpt>
      <trkpt lat="47.0939" lon="6.13498">
        <ele>370</ele>
        <time>2022-06-05T00:11:20Z</time>
      </trkpt>
      <trkpt lat="47.09376" lon="6.13499">
        <ele>371</ele>
        <time>2022-06-05T00:11:31Z</time>
      </trkpt>
      <trkpt lat="47.09365" lon="6.13501">
        <ele>371</ele>
        <time>2022-06-05T00:11:40Z</time>
      </trkpt>
      <trkpt lat="47.09355" lon="6.135">
        <ele>371</ele>
        <time>2022-06-05T00:11:48Z</time>
      </trkpt>
      <trkpt lat="47.0934" lon="6.13495">
        <ele>373</ele>
        <time>2022-06-05T00:12:00Z</time>
      </trkpt>
      <trkpt lat="47.09327" lon="6.1349">
        <ele>374</ele>
        <time>2022-06-05T00:12:11Z</time>
      </trkpt>
      <trkpt lat="47.0931" lon="6.13486">
        <ele>374</ele>
        <time>2022-06-05T00:12:25Z</time>
      </trkpt>
      <trkpt lat="47.09295" lon="6.13481">
        <ele>374</ele>
        <time>2022-06-05T00:12:37Z</time>
      </trkpt>
      <trkpt lat="47.09264" lon="6.13469">
        <ele>375</ele>
        <time>2022-06-05T00:13:03Z</time>
      </trkpt>
      <trkpt lat="47.09251" lon="6.13463">
        <ele>375</ele>
        <time>2022-06-05T00:13:14Z</time>
      </trkpt>
      <trkpt lat="47.09239" lon="6.13458">
        <ele>374</ele>
        <time>2022-06-05T00:13:24Z</time>
      </trkpt>
      <trkpt lat="47.09227" lon="6.13451">
        <ele>373</ele>
        <time>2022-06-05T00:13:34Z</time>
      </trkpt>
      <trkpt lat="47.09217" lon="6.13444">
        <ele>373</ele>
        <time>2022-06-05T00:13:43Z</time>
      </trkpt>
      <trkpt lat="47.09208" lon="6.13436">
        <ele>373</ele>
        <time>2022-06-05T00:13:51Z</time>
      </trkpt>
      <trkpt lat="47.09196" lon="6.13423">
        <ele>374</ele>
        <time>2022-06-05T00:14:03Z</time>
      </trkpt>
      <trkpt lat="47.09184" lon="6.13414">
        <ele>374</ele>
        <time>2022-06-05T00:14:14Z</time>
      </trkpt>
      <trkpt lat="47.09169" lon="6.13405">
        <ele>373</ele>
        <time>2022-06-05T00:14:27Z</time>
      </trkpt>
      <trkpt lat="47.09156" lon="6.13399">
        <ele>372</ele>
        <time>2022-06-05T00:14:38Z</time>
      </trkpt>
      <trkpt lat="47.09147" lon="6.13393">
        <ele>371</ele>
        <time>2022-06-05T00:14:46Z</time>
      </trkpt>
      <trkpt lat="47.09137" lon="6.13383">
        <ele>371</ele>
        <time>2022-06-05T00:14:55Z</time>
      </trkpt>
      <trkpt lat="47.09118" lon="6.13357">
        <ele>371</ele>
        <time>2022-06-05T00:15:16Z</time>
      </trkpt>
      <trkpt lat="47.09114" lon="6.13352">
        <ele>371</ele>
        <time>2022-06-05T00:15:20Z</time>
      </trkpt>
      <trkpt lat="47.09094" lon="6.13338">
        <ele>369</ele>
        <time>2022-06-05T00:15:38Z</time>
      </trkpt>
      <trkpt lat="47.09081" lon="6.13327">
        <ele>368</ele>
        <time>2022-06-05T00:15:50Z</time>
      </trkpt>
      <trkpt lat="47.09069" lon="6.13318">
        <ele>368</ele>
        <time>2022-06-05T00:16:01Z</time>
      </trkpt>
      <trkpt lat="47.09048" lon="6.13294">
        <ele>369</ele>
        <time>2022-06-05T00:16:22Z</time>
      </trkpt>
      <trkpt lat="47.09007" lon="6.13253">
        <ele>369</ele>
        <time>2022-06-05T00:17:02Z</time>
      </trkpt>
      <trkpt lat="47.08992" lon="6.1324">
        <ele>369</ele>
        <time>2022-06-05T00:17:16Z</time>
      </trkpt>
      <trkpt lat="47.0896" lon="6.1321">
        <ele>367</ele>
        <time>2022-06-05T00:17:47Z</time>
      </trkpt>
      <trkpt lat="47.08946" lon="6.1319">
        <ele>367</ele>
        <time>2022-06-05T00:18:02Z</time>
      </trkpt>
      <trkpt lat="47.08938" lon="6.13176">
        <ele>366</ele>
        <time>2022-06-05T00:18:12Z</time>
      </trkpt>
      <trkpt lat="47.08929" lon="6.13162">
        <ele>366</ele>
        <time>2022-06-05T00:18:23Z</time>
      </trkpt>
      <trkpt lat="47.08915" lon="6.13138">
        <ele>366</ele>
        <time>2022-06-05T00:18:40Z</time>
      </trkpt>
      <trkpt lat="47.08905" lon="6.13115">
        <ele>368</ele>
        <time>2022-06-05T00:18:55Z</time>
      </trkpt>
      <trkpt lat="47.08892" lon="6.13092">
        <ele>369</ele>
        <time>2022-06-05T00:19:11Z</time>
      </trkpt>
      <trkpt lat="47.08867" lon="6.1305">
        <ele>368</ele>
        <time>2022-06-05T00:19:42Z</time>
      </trkpt>
      <trkpt lat="47.08858" lon="6.13032">
        <ele>367</ele>
        <time>2022-06-05T00:19:54Z</time>
      </trkpt>
      <trkpt lat="47.08839" lon="6.12985">
        <ele>365</ele>
        <time>2022-06-05T00:20:24Z</time>
      </trkpt>
      <trkpt lat="47.08815" lon="6.1293">
        <ele>368</ele>
        <time>2022-06-05T00:20:59Z</time>
      </trkpt>
      <trkpt lat="47.08805" lon="6.12904">
        <ele>369</ele>
        <time>2022-06-05T00:21:16Z</time>
      </trkpt>
      <trkpt lat="47.08797" lon="6.12888">
        <ele>370</ele>
        <time>2022-06-05T00:21:26Z</time>
      </trkpt>
      <trkpt lat="47.0879" lon="6.12872">
        <ele>370</ele>
        <time>2022-06-05T00:21:37Z</time>
      </trkpt>
      <trkpt lat="47.08784" lon="6.12857">
        <ele>371</ele>
        <time>2022-06-05T00:21:46Z</time>
      </trkpt>
      <trkpt lat="47.08778" lon="6.12848">
        <ele>370</ele>
        <time>2022-06-05T00:21:53Z</time>
      </trkpt>
      <trkpt lat="47.08767" lon="6.12838">
        <ele>369</ele>
        <time>2022-06-05T00:22:03Z</time>
      </trkpt>
      <trkpt lat="47.08753" lon="6.12823">
        <ele>368</ele>
        <time>2022-06-05T00:22:17Z</time>
      </trkpt>
      <trkpt lat="47.08741" lon="6.12809">
        <ele>369</ele>
        <time>2022-06-05T00:22:30Z</time>
      </trkpt>
      <trkpt lat="47.08731" lon="6.12799">
        <ele>370</ele>
        <time>2022-06-05T00:22:39Z</time>
      </trkpt>
      <trkpt lat="47.08682" lon="6.12743">
        <ele>368</ele>
        <time>2022-06-05T00:23:29Z</time>
      </trkpt>
      <trkpt lat="47.08668" lon="6.12721">
        <ele>368</ele>
        <time>2022-06-05T00:23:46Z</time>
      </trkpt>
      <trkpt lat="47.08654" lon="6.12695">
        <ele>369</ele>
        <time>2022-06-05T00:24:04Z</time>
      </trkpt>
      <trkpt lat="47.08643" lon="6.12678">
        <ele>370</ele>
        <time>2022-06-05T00:24:16Z</time>
      </trkpt>
      <trkpt lat="47.08631" lon="6.1267">
        <ele>369</ele>
        <time>2022-06-05T00:24:27Z</time>
      </trkpt>
      <trkpt lat="47.0862" lon="6.12662">
        <ele>368</ele>
        <time>2022-06-05T00:24:37Z</time>
      </trkpt>
      <trkpt lat="47.0861" lon="6.12651">
        <ele>368</ele>
        <time>2022-06-05T00:24:47Z</time>
      </trkpt>
      <trkpt lat="47.08603" lon="6.12638">
        <ele>368</ele>
        <time>2022-06-05T00:24:56Z</time>
      </trkpt>
      <trkpt lat="47.08594" lon="6.12628">
        <ele>368</ele>
        <time>2022-06-05T00:25:05Z</time>
      </trkpt>
      <trkpt lat="47.08573" lon="6.12614">
        <ele>366</ele>
        <time>2022-06-05T00:25:23Z</time>
      </trkpt>
      <trkpt lat="47.08562" lon="6.12612">
        <ele>366</ele>
        <time>2022-06-05T00:25:32Z</time>
      </trkpt>
      <trkpt lat="47.08549" lon="6.12606">
        <ele>366</ele>
        <time>2022-06-05T00:25:43Z</time>
      </trkpt>
      <trkpt lat="47.08538" lon="6.12602">
        <ele>365</ele>
        <time>2022-06-05T00:25:52Z</time>
      </trkpt>
      <trkpt lat="47.08529" lon="6.12596">
        <ele>365</ele>
        <time>2022-06-05T00:26:00Z</time>
      </trkpt>
      <trkpt lat="47.08524" lon="6.1259">
        <ele>365</ele>
        <time>2022-06-05T00:26:05Z</time>
      </trkpt>
      <trkpt lat="47.08512" lon="6.1258">
        <ele>365</ele>
        <time>2022-06-05T00:26:16Z</time>
      </trkpt>
      <trkpt lat="47.08503" lon="6.12576">
        <ele>365</ele>
        <time>2022-06-05T00:26:24Z</time>
      </trkpt>
      <trkpt lat="47.08498" lon="6.12577">
        <ele>365</ele>
        <time>2022-06-05T00:26:28Z</time>
      </trkpt>
      <trkpt lat="47.08484" lon="6.12584">
        <ele>365</ele>
        <time>2022-06-05T00:26:40Z</time>
      </trkpt>
      <trkpt lat="47.08451" lon="6.12596">
        <ele>366</ele>
        <time>2022-06-05T00:27:07Z</time>
      </trkpt>
      <trkpt lat="47.0843" lon="6.12606">
        <ele>366</ele>
        <time>2022-06-05T00:27:25Z</time>
      </trkpt>
      <trkpt lat="47.08422" lon="6.12609">
        <ele>366</ele>
        <time>2022-06-05T00:27:31Z</time>
      </trkpt>
      <trkpt lat="47.08393" lon="6.12627">
        <ele>366</ele>
        <time>2022-06-05T00:27:57Z</time>
      </trkpt>
      <trkpt lat="47.08364" lon="6.12655">
        <ele>365</ele>
        <time>2022-06-05T00:28:24Z</time>
      </trkpt>
      <trkpt lat="47.08357" lon="6.12663">
        <ele>365</ele>
        <time>2022-06-05T00:28:32Z</time>
      </trkpt>
      <trkpt lat="47.08328" lon="6.12686">
        <ele>367</ele>
        <time>2022-06-05T00:28:58Z</time>
      </trkpt>
      <trkpt lat="47.08306" lon="6.12706">
        <ele>369</ele>
        <time>2022-06-05T00:29:19Z</time>
      </trkpt>
      <trkpt lat="47.08257" lon="6.12742">
        <ele>369</ele>
        <time>2022-06-05T00:30:03Z</time>
      </trkpt>
      <trkpt lat="47.08205" lon="6.12792">
        <ele>374</ele>
        <time>2022-06-05T00:30:52Z</time>
      </trkpt>
      <trkpt lat="47.08178" lon="6.12817">
        <ele>374</ele>
        <time>2022-06-05T00:31:18Z</time>
      </trkpt>
      <trkpt lat="47.08167" lon="6.12838">
        <ele>375</ele>
        <time>2022-06-05T00:31:33Z</time>
      </trkpt>
      <trkpt lat="47.0815" lon="6.12868">
        <ele>380</ele>
        <time>2022-06-05T00:31:54Z</time>
      </trkpt>
      <trkpt lat="47.08117" lon="6.1288">
        <ele>379</ele>
        <time>2022-06-05T00:32:21Z</time>
      </trkpt>
      <trkpt lat="47.08089" lon="6.12898">
        <ele>378</ele>
        <time>2022-06-05T00:32:46Z</time>
      </trkpt>
      <trkpt lat="47.08077" lon="6.12913">
        <ele>379</ele>
        <time>2022-06-05T00:32:58Z</time>
      </trkpt>
      <trkpt lat="47.08057" lon="6.12939">
        <ele>382</ele>
        <time>2022-06-05T00:33:20Z</time>
      </trkpt>
      <trkpt lat="47.08041" lon="6.12948">
        <ele>383</ele>
        <time>2022-06-05T00:33:33Z</time>
      </trkpt>
      <trkpt lat="47.08001" lon="6.12948">
        <ele>380</ele>
        <time>2022-06-05T00:34:05Z</time>
      </trkpt>
      <trkpt lat="47.07924" lon="6.12956">
        <ele>378</ele>
        <time>2022-06-05T00:35:07Z</time>
      </trkpt>
      <trkpt lat="47.07893" lon="6.12963">
        <ele>379</ele>
        <time>2022-06-05T00:35:32Z</time>
      </trkpt>
      <trkpt lat="47.0787" lon="6.12963">
        <ele>380</ele>
        <time>2022-06-05T00:35:51Z</time>
      </trkpt>
      <trkpt lat="47.07837" lon="6.12971">
        <ele>382</ele>
        <time>2022-06-05T00:36:18Z</time>
      </trkpt>
      <trkpt lat="47.07817" lon="6.1297">
        <ele>384</ele>
        <time>2022-06-05T00:36:34Z</time>
      </trkpt>
      <trkpt lat="47.07786" lon="6.12966">
        <ele>387</ele>
        <time>2022-06-05T00:36:59Z</time>
      </trkpt>
      <trkpt lat="47.07761" lon="6.1295">
        <ele>387</ele>
        <time>2022-06-05T00:37:20Z</time>
      </trkpt>
      <trkpt lat="47.07727" lon="6.12933">
        <ele>388</ele>
        <time>2022-06-05T00:37:49Z</time>
      </trkpt>
      <trkpt lat="47.07691" lon="6.12921">
        <ele>389</ele>
        <time>2022-06-05T00:38:19Z</time>
      </trkpt>
      <trkpt lat="47.07672" lon="6.12886">
        <ele>387</ele>
        <time>2022-06-05T00:38:43Z</time>
      </trkpt>
      <trkpt lat="47.07658" lon="6.12876">
        <ele>386</ele>
        <time>2022-06-05T00:38:56Z</time>
      </trkpt>
      <trkpt lat="47.07595" lon="6.12862">
        <ele>384</ele>
        <time>2022-06-05T00:39:47Z</time>
      </trkpt>
      <trkpt lat="47.07476" lon="6.12847">
        <ele>390</ele>
        <time>2022-06-05T00:41:23Z</time>
      </trkpt>
      <trkpt lat="47.07432" lon="6.12853">
        <ele>396</ele>
        <time>2022-06-05T00:41:58Z</time>
      </trkpt>
      <trkpt lat="47.07396" lon="6.12848">
        <ele>398</ele>
        <time>2022-06-05T00:42:27Z</time>
      </trkpt>
      <trkpt lat="47.07347" lon="6.12832">
        <ele>398</ele>
        <time>2022-06-05T00:43:07Z</time>
      </trkpt>
      <trkpt lat="47.07279" lon="6.12827">
        <ele>399</ele>
        <time>2022-06-05T00:44:02Z</time>
      </trkpt>
      <trkpt lat="47.07222" lon="6.12843">
        <ele>403</ele>
        <time>2022-06-05T00:44:48Z</time>
      </trkpt>
      <trkpt lat="47.07196" lon="6.12851">
        <ele>404</ele>
        <time>2022-06-05T00:45:10Z</time>
      </trkpt>
      <trkpt lat="47.07187" lon="6.12853">
        <ele>405</ele>
        <time>2022-06-05T00:45:17Z</time>
      </trkpt>
      <trkpt lat="47.07177" lon="6.1285">
        <ele>404</ele>
        <time>2022-06-05T00:45:25Z</time>
      </trkpt>
      <trkpt lat="47.07168" lon="6.1284">
        <ele>401</ele>
        <time>2022-06-05T00:45:34Z</time>
      </trkpt>
      <trkpt lat="47.07161" lon="6.12823">
        <ele>399</ele>
        <time>2022-06-05T00:45:45Z</time>
      </trkpt>
      <trkpt lat="47.07135" lon="6.12796">
        <ele>400</ele>
        <time>2022-06-05T00:46:10Z</time>
      </trkpt>
      <trkpt lat="47.07123" lon="6.12791">
        <ele>400</ele>
        <time>2022-06-05T00:46:20Z</time>
      </trkpt>
      <trkpt lat="47.07079" lon="6.12793">
        <ele>401</ele>
        <time>2022-06-05T00:46:56Z</time>
      </trkpt>
      <trkpt lat="47.07027" lon="6.12796">
        <ele>402</ele>
        <time>2022-06-05T00:47:37Z</time>
      </trkpt>
      <trkpt lat="47.06972" lon="6.12815">
        <ele>404</ele>
        <time>2022-06-05T00:48:23Z</time>
      </trkpt>
      <trkpt lat="47.0693" lon="6.12823">
        <ele>406</ele>
        <time>2022-06-05T00:48:57Z</time>
      </trkpt>
      <trkpt lat="47.06901" lon="6.12826">
        <ele>409</ele>
        <time>2022-06-05T00:49:20Z</time>
      </trkpt>
      <trkpt lat="47.06884" lon="6.12826">
        <ele>411</ele>
        <time>2022-06-05T00:49:34Z</time>
      </trkpt>
      <trkpt lat="47.06854" lon="6.12817">
        <ele>415</ele>
        <time>2022-06-05T00:49:58Z</time>
      </trkpt>
      <trkpt lat="47.06767" lon="6.12734">
        <ele>411</ele>
        <time>2022-06-05T00:51:21Z</time>
      </trkpt>
      <trkpt lat="47.06693" lon="6.12703">
        <ele>417</ele>
        <time>2022-06-05T00:52:23Z</time>
      </trkpt>
      <trkpt lat="47.06617" lon="6.12683">
        <ele>418</ele>
        <time>2022-06-05T00:53:25Z</time>
      </trkpt>
      <trkpt lat="47.06529" lon="6.12673">
        <ele>422</ele>
        <time>2022-06-05T00:54:36Z</time>
      </trkpt>
      <trkpt lat="47.06469" lon="6.12682">
        <ele>428</ele>
        <time>2022-06-05T00:55:24Z</time>
      </trkpt>
      <trkpt lat="47.06409" lon="6.12696">
        <ele>433</ele>
        <time>2022-06-05T00:56:13Z</time>
      </trkpt>
      <trkpt lat="47.06361" lon="6.12706">
        <ele>435</ele>
        <time>2022-06-05T00:56:52Z</time>
      </trkpt>
      <trkpt lat="47.0633" lon="6.12703">
        <ele>435</ele>
        <time>2022-06-05T00:57:16Z</time>
      </trkpt>
      <trkpt lat="47.06267" lon="6.12667">
        <ele>431</ele>
        <time>2022-06-05T00:58:11Z</time>
      </trkpt>
      <trkpt lat="47.06218" lon="6.12633">
        <ele>438</ele>
        <time>2022-06-05T00:58:54Z</time>
      </trkpt>
      <trkpt lat="47.06173" lon="6.12585">
        <ele>433</ele>
        <time>2022-06-05T00:59:39Z</time>
      </trkpt>
      <trkpt lat="47.06115" lon="6.1254">
        <ele>446</ele>
        <time>2022-06-05T01:00:31Z</time>
      </trkpt>
      <trkpt lat="47.06004" lon="6.12493">
        <ele>440</ele>
        <time>2022-06-05T01:02:04Z</time>
      </trkpt>
      <trkpt lat="47.05969" lon="6.12457">
        <ele>448</ele>
        <time>2022-06-05T01:02:38Z</time>
      </trkpt>
      <trkpt lat="47.05932" lon="6.12395">
        <ele>451</ele>
        <time>2022-06-05T01:03:23Z</time>
      </trkpt>
      <trkpt lat="47.05887" lon="6.12344">
        <ele>459</ele>
        <time>2022-06-05T01:04:09Z</time>
      </trkpt>
      <trkpt lat="47.05799" lon="6.12258">
        <ele>461</ele>
        <time>2022-06-05T01:05:33Z</time>
      </trkpt>
      <trkpt lat="47.05713" lon="6.12193">
        <ele>469</ele>
        <time>2022-06-05T01:06:51Z</time>
      </trkpt>
      <trkpt lat="47.05638" lon="6.12145">
        <ele>480</ele>
        <time>2022-06-05T01:07:56Z</time>
      </trkpt>
      <trkpt lat="47.05586" lon="6.12125">
        <ele>492</ele>
        <time>2022-06-05T01:08:40Z</time>
      </trkpt>
      <trkpt lat="47.0554" lon="6.12115">
        <ele>498</ele>
        <time>2022-06-05T01:09:17Z</time>
      </trkpt>
      <trkpt lat="47.05501" lon="6.12123">
        <ele>505</ele>
        <time>2022-06-05T01:09:48Z</time>
      </trkpt>
      <trkpt lat="47.05479" lon="6.12107">
        <ele>509</ele>
        <time>2022-06-05T01:10:08Z</time>
      </trkpt>
      <trkpt lat="47.0544" lon="6.12087">
        <ele>522</ele>
        <time>2022-06-05T01:10:41Z</time>
      </trkpt>
      <trkpt lat="47.05387" lon="6.12082">
        <ele>537</ele>
        <time>2022-06-05T01:11:24Z</time>
      </trkpt>
      <trkpt lat="47.05331" lon="6.12082">
        <ele>546</ele>
        <time>2022-06-05T01:12:09Z</time>
      </trkpt>
      <trkpt lat="47.05312" lon="6.12064">
        <ele>549</ele>
        <time>2022-06-05T01:12:27Z</time>
      </trkpt>
      <trkpt lat="47.05303" lon="6.12044">
        <ele>555</ele>
        <time>2022-06-05T01:12:40Z</time>
      </trkpt>
      <trkpt lat="47.05303" lon="6.12022">
        <ele>563</ele>
        <time>2022-06-05T01:12:52Z</time>
      </trkpt>
      <trkpt lat="47.05341" lon="6.12029">
        <ele>563</ele>
        <time>2022-06-05T01:13:23Z</time>
      </trkpt>
      <trkpt lat="47.05371" lon="6.1202">
        <ele>559</ele>
        <time>2022-06-05T01:13:47Z</time>
      </trkpt>
      <trkpt lat="47.05428" lon="6.1195">
        <ele>571</ele>
        <time>2022-06-05T01:14:47Z</time>
      </trkpt>
      <trkpt lat="47.055" lon="6.11915">
        <ele>567</ele>
        <time>2022-06-05T01:15:47Z</time>
      </trkpt>
      <trkpt lat="47.05545" lon="6.11904">
        <ele>567</ele>
        <time>2022-06-05T01:16:24Z</time>
      </trkpt>
      <trkpt lat="47.05596" lon="6.11901">
        <ele>565</ele>
        <time>2022-06-05T01:17:05Z</time>
      </trkpt>
      <trkpt lat="47.05659" lon="6.11923">
        <ele>561</ele>
        <time>2022-06-05T01:17:57Z</time>
      </trkpt>
      <trkpt lat="47.0575" lon="6.11968">
        <ele>560</ele>
        <time>2022-06-05T01:19:14Z</time>
      </trkpt>
      <trkpt lat="47.05828" lon="6.12016">
        <ele>559</ele>
        <time>2022-06-05T01:20:22Z</time>
      </trkpt>
      <trkpt lat="47.05931" lon="6.12112">
        <ele>555</ele>
        <time>2022-06-05T01:21:59Z</time>
      </trkpt>
      <trkpt lat="47.06005" lon="6.12178">
        <ele>559</ele>
        <time>2022-06-05T01:23:09Z</time>
      </trkpt>
      <trkpt lat="47.06071" lon="6.12214">
        <ele>564</ele>
        <time>2022-06-05T01:24:05Z</time>
      </trkpt>
      <trkpt lat="47.06132" lon="6.12213">
        <ele>569</ele>
        <time>2022-06-05T01:24:54Z</time>
      </trkpt>
      <trkpt lat="47.0617" lon="6.12196">
        <ele>573</ele>
        <time>2022-06-05T01:25:26Z</time>
      </trkpt>
      <trkpt lat="47.06236" lon="6.12125">
        <ele>579</ele>
        <time>2022-06-05T01:26:32Z</time>
      </trkpt>
      <trkpt lat="47.06276" lon="6.1208">
        <ele>579</ele>
        <time>2022-06-05T01:27:12Z</time>
      </trkpt>
      <trkpt lat="47.06288" lon="6.12056">
        <ele>578</ele>
        <time>2022-06-05T01:27:28Z</time>
      </trkpt>
      <trkpt lat="47.06293" lon="6.12014">
        <ele>576</ele>
        <time>2022-06-05T01:27:51Z</time>
      </trkpt>
      <trkpt lat="47.06293" lon="6.11999">
        <ele>575</ele>
        <time>2022-06-05T01:28:00Z</time>
      </trkpt>
      <trkpt lat="47.06285" lon="6.11982">
        <ele>576</ele>
        <time>2022-06-05T01:28:11Z</time>
      </trkpt>
      <trkpt lat="47.06269" lon="6.11965">
        <ele>578</ele>
        <time>2022-06-05T01:28:27Z</time>
      </trkpt>
      <trkpt lat="47.06254" lon="6.11954">
        <ele>580</ele>
        <time>2022-06-05T01:28:40Z</time>
      </trkpt>
      <trkpt lat="47.06249" lon="6.11939">
        <ele>580</ele>
        <time>2022-06-05T01:28:49Z</time>
      </trkpt>
      <trkpt lat="47.06257" lon="6.1192">
        <ele>579</ele>
        <time>2022-06-05T01:29:02Z</time>
      </trkpt>
      <trkpt lat="47.0626" lon="6.11897">
        <ele>578</ele>
        <time>2022-06-05T01:29:14Z</time>
      </trkpt>
      <trkpt lat="47.06262" lon="6.11876">
        <ele>578</ele>
        <time>2022-06-05T01:29:26Z</time>
      </trkpt>
      <trkpt lat="47.06256" lon="6.11839">
        <ele>577</ele>
        <time>2022-06-05T01:29:47Z</time>
      </trkpt>
      <trkpt lat="47.06254" lon="6.11819">
        <ele>577</ele>
        <time>2022-06-05T01:29:58Z</time>
      </trkpt>
      <trkpt lat="47.06263" lon="6.11824">
        <ele>576</ele>
        <time>2022-06-05T01:30:05Z</time>
      </trkpt>
      <trkpt lat="47.06295" lon="6.1184">
        <ele>573</ele>
        <time>2022-06-05T01:30:32Z</time>
      </trkpt>
      <trkpt lat="47.06312" lon="6.11849">
        <ele>571</ele>
        <time>2022-06-05T01:30:47Z</time>
      </trkpt>
      <trkpt lat="47.06328" lon="6.11856">
        <ele>569</ele>
        <time>2022-06-05T01:31:00Z</time>
      </trkpt>
      <trkpt lat="47.06365" lon="6.11873">
        <ele>567</ele>
        <time>2022-06-05T01:31:31Z</time>
      </trkpt>
      <trkpt lat="47.06402" lon="6.11892">
        <ele>565</ele>
        <time>2022-06-05T01:32:03Z</time>
      </trkpt>
      <trkpt lat="47.06432" lon="6.11906">
        <ele>565</ele>
        <time>2022-06-05T01:32:28Z</time>
      </trkpt>
      <trkpt lat="47.06486" lon="6.11933">
        <ele>567</ele>
        <time>2022-06-05T01:33:14Z</time>
      </trkpt>
      <trkpt lat="47.06509" lon="6.11945">
        <ele>567</ele>
        <time>2022-06-05T01:33:33Z</time>
      </trkpt>
      <trkpt lat="47.06521" lon="6.11949">
        <ele>567</ele>
        <time>2022-06-05T01:33:43Z</time>
      </trkpt>
      <trkpt lat="47.06539" lon="6.11957">
        <ele>567</ele>
        <time>2022-06-05T01:33:58Z</time>
      </trkpt>
      <trkpt lat="47.0656" lon="6.11964">
        <ele>566</ele>
        <time>2022-06-05T01:34:16Z</time>
      </trkpt>
      <trkpt lat="47.06583" lon="6.11969">
        <ele>566</ele>
        <time>2022-06-05T01:34:34Z</time>
      </trkpt>
      <trkpt lat="47.06597" lon="6.11974">
        <ele>566</ele>
        <time>2022-06-05T01:34:46Z</time>
      </trkpt>
      <trkpt lat="47.06646" lon="6.11987">
        <ele>565</ele>
        <time>2022-06-05T01:35:26Z</time>
      </trkpt>
      <trkpt lat="47.06661" lon="6.11988">
        <ele>565</ele>
        <time>2022-06-05T01:35:38Z</time>
      </trkpt>
      <trkpt lat="47.0667" lon="6.11988">
        <ele>565</ele>
        <time>2022-06-05T01:35:45Z</time>
      </trkpt>
      <trkpt lat="47.06678" lon="6.11987">
        <ele>565</ele>
        <time>2022-06-05T01:35:51Z</time>
      </trkpt>
      <trkpt lat="47.06688" lon="6.11983">
        <ele>565</ele>
        <time>2022-06-05T01:36:00Z</time>
      </trkpt>
      <trkpt lat="47.06708" lon="6.1197">
        <ele>566</ele>
        <time>2022-06-05T01:36:17Z</time>
      </trkpt>
      <trkpt lat="47.06704" lon="6.11972">
        <ele>566</ele>
        <time>2022-06-05T01:36:21Z</time>
      </trkpt>
      <trkpt lat="47.06694" lon="6.11973">
        <ele>565</ele>
        <time>2022-06-05T01:36:29Z</time>
      </trkpt>
      <trkpt lat="47.06685" lon="6.11972">
        <ele>565</ele>
        <time>2022-06-05T01:36:36Z</time>
      </trkpt>
      <trkpt lat="47.06676" lon="6.11968">
        <ele>565</ele>
        <time>2022-06-05T01:36:43Z</time>
      </trkpt>
      <trkpt lat="47.06662" lon="6.1196">
        <ele>565</ele>
        <time>2022-06-05T01:36:55Z</time>
      </trkpt>
      <trkpt lat="47.06639" lon="6.11935">
        <ele>564</ele>
        <time>2022-06-05T01:37:18Z</time>
      </trkpt>
      <trkpt lat="47.06624" lon="6.11918">
        <ele>564</ele>
        <time>2022-06-05T01:37:34Z</time>
      </trkpt>
      <trkpt lat="47.06574" lon="6.11866">
        <ele>564</ele>
        <time>2022-06-05T01:38:23Z</time>
      </trkpt>
      <trkpt lat="47.06561" lon="6.11852">
        <ele>564</ele>
        <time>2022-06-05T01:38:36Z</time>
      </trkpt>
      <trkpt lat="47.06552" lon="6.11841">
        <ele>564</ele>
        <time>2022-06-05T01:38:45Z</time>
      </trkpt>
      <trkpt lat="47.06535" lon="6.11809">
        <ele>563</ele>
        <time>2022-06-05T01:39:07Z</time>
      </trkpt>
      <trkpt lat="47.06524" lon="6.11782">
        <ele>562</ele>
        <time>2022-06-05T01:39:24Z</time>
      </trkpt>
      <trkpt lat="47.06519" lon="6.11765">
        <ele>562</ele>
        <time>2022-06-05T01:39:34Z</time>
      </trkpt>
      <trkpt lat="47.06516" lon="6.11746">
        <ele>561</ele>
        <time>2022-06-05T01:39:45Z</time>
      </trkpt>
      <trkpt lat="47.06514" lon="6.11717">
        <ele>558</ele>
        <time>2022-06-05T01:40:01Z</time>
      </trkpt>
      <trkpt lat="47.0653" lon="6.11678">
        <ele>557</ele>
        <time>2022-06-05T01:40:26Z</time>
      </trkpt>
      <trkpt lat="47.06549" lon="6.1164">
        <ele>555</ele>
        <time>2022-06-05T01:40:52Z</time>
      </trkpt>
      <trkpt lat="47.06555" lon="6.11626">
        <ele>554</ele>
        <time>2022-06-05T01:41:01Z</time>
      </trkpt>
      <trkpt lat="47.06557" lon="6.11618">
        <ele>553</ele>
        <time>2022-06-05T01:41:05Z</time>
      </trkpt>
      <trkpt lat="47.06561" lon="6.11609">
        <ele>553</ele>
        <time>2022-06-05T01:41:11Z</time>
      </trkpt>
      <trkpt lat="47.06567" lon="6.11597">
        <ele>552</ele>
        <time>2022-06-05T01:41:19Z</time>
      </trkpt>
      <trkpt lat="47.06576" lon="6.11584">
        <ele>552</ele>
        <time>2022-06-05T01:41:29Z</time>
      </trkpt>
      <trkpt lat="47.06585" lon="6.11569">
        <ele>552</ele>
        <time>2022-06-05T01:41:40Z</time>
      </trkpt>
      <trkpt lat="47.06596" lon="6.11558">
        <ele>553</ele>
        <time>2022-06-05T01:41:51Z</time>
      </trkpt>
      <trkpt lat="47.06622" lon="6.11525">
        <ele>556</ele>
        <time>2022-06-05T01:42:18Z</time>
      </trkpt>
      <trkpt lat="47.06631" lon="6.11511">
        <ele>556</ele>
        <time>2022-06-05T01:42:29Z</time>
      </trkpt>
      <trkpt lat="47.06644" lon="6.11496">
        <ele>558</ele>
        <time>2022-06-05T01:42:42Z</time>
      </trkpt>
      <trkpt lat="47.06651" lon="6.11493">
        <ele>559</ele>
        <time>2022-06-05T01:42:48Z</time>
      </trkpt>
      <trkpt lat="47.0666" lon="6.11488">
        <ele>560</ele>
        <time>2022-06-05T01:42:56Z</time>
      </trkpt>
      <trkpt lat="47.06684" lon="6.11484">
        <ele>563</ele>
        <time>2022-06-05T01:43:15Z</time>
      </trkpt>
      <trkpt lat="47.06693" lon="6.11484">
        <ele>564</ele>
        <time>2022-06-05T01:43:22Z</time>
      </trkpt>
      <trkpt lat="47.06703" lon="6.11488">
        <ele>566</ele>
        <time>2022-06-05T01:43:31Z</time>
      </trkpt>
      <trkpt lat="47.06706" lon="6.11488">
        <ele>566</ele>
        <time>2022-06-05T01:43:33Z</time>
      </trkpt>
      <trkpt lat="47.06718" lon="6.11486">
        <ele>568</ele>
        <time>2022-06-05T01:43:43Z</time>
      </trkpt>
      <trkpt lat="47.06741" lon="6.11484">
        <ele>570</ele>
        <time>2022-06-05T01:44:01Z</time>
      </trkpt>
      <trkpt lat="47.06748" lon="6.11484">
        <ele>571</ele>
        <time>2022-06-05T01:44:07Z</time>
      </trkpt>
      <trkpt lat="47.06755" lon="6.11485">
        <ele>572</ele>
        <time>2022-06-05T01:44:12Z</time>
      </trkpt>
      <trkpt lat="47.06767" lon="6.11489">
        <ele>573</ele>
        <time>2022-06-05T01:44:22Z</time>
      </trkpt>
      <trkpt lat="47.06771" lon="6.11491">
        <ele>574</ele>
        <time>2022-06-05T01:44:26Z</time>
      </trkpt>
      <trkpt lat="47.06799" lon="6.11513">
        <ele>577</ele>
        <time>2022-06-05T01:44:51Z</time>
      </trkpt>
      <trkpt lat="47.06813" lon="6.11522">
        <ele>579</ele>
        <time>2022-06-05T01:45:03Z</time>
      </trkpt>
      <trkpt lat="47.06815" lon="6.11523">
        <ele>579</ele>
        <time>2022-06-05T01:45:05Z</time>
      </trkpt>
      <trkpt lat="47.06832" lon="6.11529">
        <ele>580</ele>
        <time>2022-06-05T01:45:19Z</time>
      </trkpt>
      <trkpt lat="47.06839" lon="6.11527">
        <ele>580</ele>
        <time>2022-06-05T01:45:25Z</time>
      </trkpt>
      <trkpt lat="47.06849" lon="6.11526">
        <ele>580</ele>
        <time>2022-06-05T01:45:33Z</time>
      </trkpt>
      <trkpt lat="47.06856" lon="6.1152">
        <ele>580</ele>
        <time>2022-06-05T01:45:39Z</time>
      </trkpt>
      <trkpt lat="47.06873" lon="6.11491">
        <ele>579</ele>
        <time>2022-06-05T01:46:00Z</time>
      </trkpt>
      <trkpt lat="47.06893" lon="6.11461">
        <ele>579</ele>
        <time>2022-06-05T01:46:23Z</time>
      </trkpt>
      <trkpt lat="47.06911" lon="6.11453">
        <ele>579</ele>
        <time>2022-06-05T01:46:38Z</time>
      </trkpt>
      <trkpt lat="47.06912" lon="6.11449">
        <ele>579</ele>
        <time>2022-06-05T01:46:41Z</time>
      </trkpt>
      <trkpt lat="47.06916" lon="6.11354">
        <ele>579</ele>
        <time>2022-06-05T01:47:33Z</time>
      </trkpt>
      <trkpt lat="47.06919" lon="6.11247">
        <ele>580</ele>
        <time>2022-06-05T01:48:31Z</time>
      </trkpt>
      <trkpt lat="47.06918" lon="6.11206">
        <ele>577</ele>
        <time>2022-06-05T01:48:53Z</time>
      </trkpt>
      <trkpt lat="47.06922" lon="6.11169">
        <ele>575</ele>
        <time>2022-06-05T01:49:14Z</time>
      </trkpt>
      <trkpt lat="47.06926" lon="6.11115">
        <ele>572</ele>
        <time>2022-06-05T01:49:43Z</time>
      </trkpt>
      <trkpt lat="47.06927" lon="6.11086">
        <ele>570</ele>
        <time>2022-06-05T01:49:59Z</time>
      </trkpt>
      <trkpt lat="47.06927" lon="6.11008">
        <ele>566</ele>
        <time>2022-06-05T01:50:42Z</time>
      </trkpt>
      <trkpt lat="47.06934" lon="6.11017">
        <ele>567</ele>
        <time>2022-06-05T01:50:49Z</time>
      </trkpt>
      <trkpt lat="47.06945" lon="6.1103">
        <ele>567</ele>
        <time>2022-06-05T01:51:01Z</time>
      </trkpt>
      <trkpt lat="47.06992" lon="6.11034">
        <ele>567</ele>
        <time>2022-06-05T01:51:38Z</time>
      </trkpt>
      <trkpt lat="47.07035" lon="6.11032">
        <ele>567</ele>
        <time>2022-06-05T01:52:13Z</time>
      </trkpt>
      <trkpt lat="47.07056" lon="6.11032">
        <ele>566</ele>
        <time>2022-06-05T01:52:30Z</time>
      </trkpt>
      <trkpt lat="47.07072" lon="6.11036">
        <ele>566</ele>
        <time>2022-06-05T01:52:43Z</time>
      </trkpt>
      <trkpt lat="47.07114" lon="6.11049">
        <ele>567</ele>
        <time>2022-06-05T01:53:17Z</time>
      </trkpt>
      <trkpt lat="47.07127" lon="6.11062">
        <ele>568</ele>
        <time>2022-06-05T01:53:30Z</time>
      </trkpt>
      <trkpt lat="47.07128" lon="6.11062">
        <ele>568</ele>
        <time>2022-06-05T01:53:31Z</time>
      </trkpt>
      <trkpt lat="47.07151" lon="6.11083">
        <ele>570</ele>
        <time>2022-06-05T01:53:52Z</time>
      </trkpt>
      <trkpt lat="47.07193" lon="6.11096">
        <ele>570</ele>
        <time>2022-06-05T01:54:27Z</time>
      </trkpt>
      <trkpt lat="47.07214" lon="6.1111">
        <ele>570</ele>
        <time>2022-06-05T01:54:45Z</time>
      </trkpt>
      <trkpt lat="47.07221" lon="6.11113">
        <ele>570</ele>
        <time>2022-06-05T01:54:51Z</time>
      </trkpt>
      <trkpt lat="47.07265" lon="6.1113">
        <ele>569</ele>
        <time>2022-06-05T01:55:27Z</time>
      </trkpt>
      <trkpt lat="47.07351" lon="6.11097">
        <ele>564</ele>
        <time>2022-06-05T01:56:39Z</time>
      </trkpt>
      <trkpt lat="47.07384" lon="6.11096">
        <ele>564</ele>
        <time>2022-06-05T01:57:05Z</time>
      </trkpt>
      <trkpt lat="47.07411" lon="6.11105">
        <ele>564</ele>
        <time>2022-06-05T01:57:27Z</time>
      </trkpt>
      <trkpt lat="47.07449" lon="6.11117">
        <ele>564</ele>
        <time>2022-06-05T01:57:59Z</time>
      </trkpt>
      <trkpt lat="47.07504" lon="6.11128">
        <ele>564</ele>
        <time>2022-06-05T01:58:43Z</time>
      </trkpt>
      <trkpt lat="47.07543" lon="6.11137">
        <ele>565</ele>
        <time>2022-06-05T01:59:15Z</time>
      </trkpt>
      <trkpt lat="47.07586" lon="6.11133">
        <ele>565</ele>
        <time>2022-06-05T01:59:49Z</time>
      </trkpt>
      <trkpt lat="47.07607" lon="6.11132">
        <ele>564</ele>
        <time>2022-06-05T02:00:06Z</time>
      </trkpt>
      <trkpt lat="47.07685" lon="6.11196">
        <ele>566</ele>
        <time>2022-06-05T02:01:18Z</time>
      </trkpt>
      <trkpt lat="47.07761" lon="6.11264">
        <ele>566</ele>
        <time>2022-06-05T02:02:29Z</time>
      </trkpt>
      <trkpt lat="47.078" lon="6.11262">
        <ele>563</ele>
        <time>2022-06-05T02:03:00Z</time>
      </trkpt>
      <trkpt lat="47.07816" lon="6.11267">
        <ele>561</ele>
        <time>2022-06-05T02:03:13Z</time>
      </trkpt>
      <trkpt lat="47.07834" lon="6.11272">
        <ele>560</ele>
        <time>2022-06-05T02:03:28Z</time>
      </trkpt>
      <trkpt lat="47.07847" lon="6.1128">
        <ele>558</ele>
        <time>2022-06-05T02:03:39Z</time>
      </trkpt>
      <trkpt lat="47.0786" lon="6.11296">
        <ele>556</ele>
        <time>2022-06-05T02:03:53Z</time>
      </trkpt>
      <trkpt lat="47.07871" lon="6.11312">
        <ele>556</ele>
        <time>2022-06-05T02:04:05Z</time>
      </trkpt>
      <trkpt lat="47.0788" lon="6.11329">
        <ele>555</ele>
        <time>2022-06-05T02:04:17Z</time>
      </trkpt>
      <trkpt lat="47.07894" lon="6.11351">
        <ele>555</ele>
        <time>2022-06-05T02:04:34Z</time>
      </trkpt>
      <trkpt lat="47.07912" lon="6.11373">
        <ele>555</ele>
        <time>2022-06-05T02:04:52Z</time>
      </trkpt>
      <trkpt lat="47.07934" lon="6.11399">
        <ele>555</ele>
        <time>2022-06-05T02:05:15Z</time>
      </trkpt>
      <trkpt lat="47.07951" lon="6.11418">
        <ele>556</ele>
        <time>2022-06-05T02:05:32Z</time>
      </trkpt>
      <trkpt lat="47.07958" lon="6.11427">
        <ele>556</ele>
        <time>2022-06-05T02:05:40Z</time>
      </trkpt>
      <trkpt lat="47.07964" lon="6.11432">
        <ele>555</ele>
        <time>2022-06-05T02:05:45Z</time>
      </trkpt>
      <trkpt lat="47.07971" lon="6.11437">
        <ele>555</ele>
        <time>2022-06-05T02:05:51Z</time>
      </trkpt>
      <trkpt lat="47.07976" lon="6.11439">
        <ele>555</ele>
        <time>2022-06-05T02:05:55Z</time>
      </trkpt>
      <trkpt lat="47.07985" lon="6.11442">
        <ele>555</ele>
        <time>2022-06-05T02:06:03Z</time>
      </trkpt>
      <trkpt lat="47.07996" lon="6.11445">
        <ele>554</ele>
        <time>2022-06-05T02:06:12Z</time>
      </trkpt>
      <trkpt lat="47.08008" lon="6.11449">
        <ele>554</ele>
        <time>2022-06-05T02:06:22Z</time>
      </trkpt>
      <trkpt lat="47.08018" lon="6.11455">
        <ele>553</ele>
        <time>2022-06-05T02:06:30Z</time>
      </trkpt>
      <trkpt lat="47.08027" lon="6.11459">
        <ele>553</ele>
        <time>2022-06-05T02:06:38Z</time>
      </trkpt>
      <trkpt lat="47.08045" lon="6.1147">
        <ele>553</ele>
        <time>2022-06-05T02:06:53Z</time>
      </trkpt>
      <trkpt lat="47.08059" lon="6.11482">
        <ele>552</ele>
        <time>2022-06-05T02:07:06Z</time>
      </trkpt>
      <trkpt lat="47.08074" lon="6.11492">
        <ele>552</ele>
        <time>2022-06-05T02:07:20Z</time>
      </trkpt>
      <trkpt lat="47.0809" lon="6.11502">
        <ele>552</ele>
        <time>2022-06-05T02:07:34Z</time>
      </trkpt>
      <trkpt lat="47.08102" lon="6.11509">
        <ele>552</ele>
        <time>2022-06-05T02:07:44Z</time>
      </trkpt>
      <trkpt lat="47.08118" lon="6.11517">
        <ele>552</ele>
        <time>2022-06-05T02:07:58Z</time>
      </trkpt>
      <trkpt lat="47.08126" lon="6.11519">
        <ele>551</ele>
        <time>2022-06-05T02:08:04Z</time>
      </trkpt>
      <trkpt lat="47.08139" lon="6.11519">
        <ele>551</ele>
        <time>2022-06-05T02:08:14Z</time>
      </trkpt>
      <trkpt lat="47.08156" lon="6.11517">
        <ele>551</ele>
        <time>2022-06-05T02:08:28Z</time>
      </trkpt>
      <trkpt lat="47.08163" lon="6.11508">
        <ele>551</ele>
        <time>2022-06-05T02:08:36Z</time>
      </trkpt>
      <trkpt lat="47.08176" lon="6.11496">
        <ele>551</ele>
        <time>2022-06-05T02:08:48Z</time>
      </trkpt>
      <trkpt lat="47.08185" lon="6.11486">
        <ele>551</ele>
        <time>2022-06-05T02:08:57Z</time>
      </trkpt>
      <trkpt lat="47.08195" lon="6.11473">
        <ele>551</ele>
        <time>2022-06-05T02:09:08Z</time>
      </trkpt>
      <trkpt lat="47.08216" lon="6.1145">
        <ele>551</ele>
        <time>2022-06-05T02:09:29Z</time>
      </trkpt>
      <trkpt lat="47.0822" lon="6.11444">
        <ele>551</ele>
        <time>2022-06-05T02:09:33Z</time>
      </trkpt>
      <trkpt lat="47.08224" lon="6.11433">
        <ele>551</ele>
        <time>2022-06-05T02:09:40Z</time>
      </trkpt>
      <trkpt lat="47.08227" lon="6.11421">
        <ele>551</ele>
        <time>2022-06-05T02:09:47Z</time>
      </trkpt>
      <trkpt lat="47.0823" lon="6.11418">
        <ele>551</ele>
        <time>2022-06-05T02:09:50Z</time>
      </trkpt>
      <trkpt lat="47.08242" lon="6.11413">
        <ele>552</ele>
        <time>2022-06-05T02:10:00Z</time>
      </trkpt>
      <trkpt lat="47.08261" lon="6.11406">
        <ele>553</ele>
        <time>2022-06-05T02:10:16Z</time>
      </trkpt>
      <trkpt lat="47.08273" lon="6.11403">
        <ele>554</ele>
        <time>2022-06-05T02:10:25Z</time>
      </trkpt>
      <trkpt lat="47.08285" lon="6.11399">
        <ele>555</ele>
        <time>2022-06-05T02:10:35Z</time>
      </trkpt>
      <trkpt lat="47.08314" lon="6.11387">
        <ele>557</ele>
        <time>2022-06-05T02:10:59Z</time>
      </trkpt>
      <trkpt lat="47.08332" lon="6.11378">
        <ele>558</ele>
        <time>2022-06-05T02:11:15Z</time>
      </trkpt>
      <trkpt lat="47.0834" lon="6.11378">
        <ele>558</ele>
        <time>2022-06-05T02:11:21Z</time>
      </trkpt>
      <trkpt lat="47.08347" lon="6.11383">
        <ele>558</ele>
        <time>2022-06-05T02:11:27Z</time>
      </trkpt>
      <trkpt lat="47.08354" lon="6.11364">
        <ele>558</ele>
        <time>2022-06-05T02:11:39Z</time>
      </trkpt>
      <trkpt lat="47.08363" lon="6.11363">
        <ele>558</ele>
        <time>2022-06-05T02:11:46Z</time>
      </trkpt>
      <trkpt lat="47.08374" lon="6.11361">
        <ele>558</ele>
        <time>2022-06-05T02:11:55Z</time>
      </trkpt>
      <trkpt lat="47.08384" lon="6.11357">
        <ele>558</ele>
        <time>2022-06-05T02:12:03Z</time>
      </trkpt>
      <trkpt lat="47.08389" lon="6.11353">
        <ele>558</ele>
        <time>2022-06-05T02:12:08Z</time>
      </trkpt>
      <trkpt lat="47.08404" lon="6.11336">
        <ele>557</ele>
        <time>2022-06-05T02:12:23Z</time>
      </trkpt>
      <trkpt lat="47.08427" lon="6.11313">
        <ele>556</ele>
        <time>2022-06-05T02:12:46Z</time>
      </trkpt>
      <trkpt lat="47.08428" lon="6.11303">
        <ele>556</ele>
        <time>2022-06-05T02:12:51Z</time>
      </trkpt>
      <trkpt lat="47.08436" lon="6.11272">
        <ele>555</ele>
        <time>2022-06-05T02:13:09Z</time>
      </trkpt>
      <trkpt lat="47.08437" lon="6.11259">
        <ele>555</ele>
        <time>2022-06-05T02:13:16Z</time>
      </trkpt>
      <trkpt lat="47.08439" lon="6.11242">
        <ele>554</ele>
        <time>2022-06-05T02:13:26Z</time>
      </trkpt>
      <trkpt lat="47.0844" lon="6.11221">
        <ele>554</ele>
        <time>2022-06-05T02:13:37Z</time>
      </trkpt>
      <trkpt lat="47.08442" lon="6.11203">
        <ele>553</ele>
        <time>2022-06-05T02:13:47Z</time>
      </trkpt>
      <trkpt lat="47.08446" lon="6.11187">
        <ele>553</ele>
        <time>2022-06-05T02:13:56Z</time>
      </trkpt>
      <trkpt lat="47.08452" lon="6.1117">
        <ele>552</ele>
        <time>2022-06-05T02:14:07Z</time>
      </trkpt>
      <trkpt lat="47.08454" lon="6.1116">
        <ele>551</ele>
        <time>2022-06-05T02:14:13Z</time>
      </trkpt>
      <trkpt lat="47.08458" lon="6.11145">
        <ele>550</ele>
        <time>2022-06-05T02:14:21Z</time>
      </trkpt>
      <trkpt lat="47.0846" lon="6.11133">
        <ele>550</ele>
        <time>2022-06-05T02:14:28Z</time>
      </trkpt>
      <trkpt lat="47.08461" lon="6.1112">
        <ele>549</ele>
        <time>2022-06-05T02:14:35Z</time>
      </trkpt>
      <trkpt lat="47.08463" lon="6.11107">
        <ele>548</ele>
        <time>2022-06-05T02:14:43Z</time>
      </trkpt>
      <trkpt lat="47.08467" lon="6.11092">
        <ele>547</ele>
        <time>2022-06-05T02:14:51Z</time>
      </trkpt>
      <trkpt lat="47.08472" lon="6.11081">
        <ele>546</ele>
        <time>2022-06-05T02:14:59Z</time>
      </trkpt>
      <trkpt lat="47.08478" lon="6.1107">
        <ele>546</ele>
        <time>2022-06-05T02:15:06Z</time>
      </trkpt>
      <trkpt lat="47.08488" lon="6.11054">
        <ele>545</ele>
        <time>2022-06-05T02:15:18Z</time>
      </trkpt>
      <trkpt lat="47.08503" lon="6.11032">
        <ele>544</ele>
        <time>2022-06-05T02:15:35Z</time>
      </trkpt>
      <trkpt lat="47.08514" lon="6.11015">
        <ele>544</ele>
        <time>2022-06-05T02:15:48Z</time>
      </trkpt>
      <trkpt lat="47.08523" lon="6.11">
        <ele>543</ele>
        <time>2022-06-05T02:15:59Z</time>
      </trkpt>
      <trkpt lat="47.08528" lon="6.10991">
        <ele>543</ele>
        <time>2022-06-05T02:16:05Z</time>
      </trkpt>
      <trkpt lat="47.08535" lon="6.10974">
        <ele>543</ele>
        <time>2022-06-05T02:16:16Z</time>
      </trkpt>
      <trkpt lat="47.08539" lon="6.10961">
        <ele>543</ele>
        <time>2022-06-05T02:16:24Z</time>
      </trkpt>
      <trkpt lat="47.08549" lon="6.10934">
        <ele>543</ele>
        <time>2022-06-05T02:16:41Z</time>
      </trkpt>
      <trkpt lat="47.08562" lon="6.10885">
        <ele>542</ele>
        <time>2022-06-05T02:17:09Z</time>
      </trkpt>
      <trkpt lat="47.08573" lon="6.10847">
        <ele>540</ele>
        <time>2022-06-05T02:17:32Z</time>
      </trkpt>
      <trkpt lat="47.08582" lon="6.10812">
        <ele>539</ele>
        <time>2022-06-05T02:17:52Z</time>
      </trkpt>
      <trkpt lat="47.0859" lon="6.10785">
        <ele>539</ele>
        <time>2022-06-05T02:18:08Z</time>
      </trkpt>
      <trkpt lat="47.0862" lon="6.10663">
        <ele>537</ele>
        <time>2022-06-05T02:19:19Z</time>
      </trkpt>
      <trkpt lat="47.08628" lon="6.10628">
        <ele>537</ele>
        <time>2022-06-05T02:19:39Z</time>
      </trkpt>
      <trkpt lat="47.08638" lon="6.10593">
        <ele>537</ele>
        <time>2022-06-05T02:20:00Z</time>
      </trkpt>
      <trkpt lat="47.08648" lon="6.10556">
        <ele>536</ele>
        <time>2022-06-05T02:20:22Z</time>
      </trkpt>
      <trkpt lat="47.08659" lon="6.10519">
        <ele>535</ele>
        <time>2022-06-05T02:20:44Z</time>
      </trkpt>
      <trkpt lat="47.08691" lon="6.10416">
        <ele>531</ele>
        <time>2022-06-05T02:21:45Z</time>
      </trkpt>
      <trkpt lat="47.08694" lon="6.10403">
        <ele>530</ele>
        <time>2022-06-05T02:21:53Z</time>
      </trkpt>
      <trkpt lat="47.08695" lon="6.10392">
        <ele>530</ele>
        <time>2022-06-05T02:21:59Z</time>
      </trkpt>
      <trkpt lat="47.08695" lon="6.10381">
        <ele>530</ele>
        <time>2022-06-05T02:22:05Z</time>
      </trkpt>
      <trkpt lat="47.08694" lon="6.10365">
        <ele>529</ele>
        <time>2022-06-05T02:22:14Z</time>
      </trkpt>
      <trkpt lat="47.08692" lon="6.10347">
        <ele>529</ele>
        <time>2022-06-05T02:22:24Z</time>
      </trkpt>
      <trkpt lat="47.08686" lon="6.10283">
        <ele>526</ele>
        <time>2022-06-05T02:22:59Z</time>
      </trkpt>
      <trkpt lat="47.08682" lon="6.1025">
        <ele>525</ele>
        <time>2022-06-05T02:23:17Z</time>
      </trkpt>
      <trkpt lat="47.0868" lon="6.10228">
        <ele>525</ele>
        <time>2022-06-05T02:23:29Z</time>
      </trkpt>
      <trkpt lat="47.08679" lon="6.10202">
        <ele>525</ele>
        <time>2022-06-05T02:23:44Z</time>
      </trkpt>
      <trkpt lat="47.08677" lon="6.10164">
        <ele>524</ele>
        <time>2022-06-05T02:24:04Z</time>
      </trkpt>
      <trkpt lat="47.08678" lon="6.10152">
        <ele>523</ele>
        <time>2022-06-05T02:24:11Z</time>
      </trkpt>
      <trkpt lat="47.0868" lon="6.10139">
        <ele>522</ele>
        <time>2022-06-05T02:24:18Z</time>
      </trkpt>
      <trkpt lat="47.08685" lon="6.10125">
        <ele>521</ele>
        <time>2022-06-05T02:24:27Z</time>
      </trkpt>
      <trkpt lat="47.08692" lon="6.10114">
        <ele>520</ele>
        <time>2022-06-05T02:24:35Z</time>
      </trkpt>
      <trkpt lat="47.087" lon="6.10105">
        <ele>519</ele>
        <time>2022-06-05T02:24:43Z</time>
      </trkpt>
      <trkpt lat="47.08709" lon="6.10096">
        <ele>518</ele>
        <time>2022-06-05T02:24:52Z</time>
      </trkpt>
      <trkpt lat="47.08793" lon="6.10021">
        <ele>513</ele>
        <time>2022-06-05T02:26:11Z</time>
      </trkpt>
      <trkpt lat="47.08827" lon="6.09988">
        <ele>511</ele>
        <time>2022-06-05T02:26:43Z</time>
      </trkpt>
      <trkpt lat="47.08895" lon="6.09929">
        <ele>509</ele>
        <time>2022-06-05T02:27:47Z</time>
      </trkpt>
      <trkpt lat="47.08912" lon="6.09913">
        <ele>508</ele>
        <time>2022-06-05T02:28:03Z</time>
      </trkpt>
      <trkpt lat="47.08931" lon="6.09896">
        <ele>508</ele>
        <time>2022-06-05T02:28:21Z</time>
      </trkpt>
      <trkpt lat="47.08939" lon="6.09887">
        <ele>508</ele>
        <time>2022-06-05T02:28:29Z</time>
      </trkpt>
      <trkpt lat="47.0895" lon="6.09871">
        <ele>508</ele>
        <time>2022-06-05T02:28:41Z</time>
      </trkpt>
      <trkpt lat="47.08983" lon="6.09831">
        <ele>506</ele>
        <time>2022-06-05T02:29:15Z</time>
      </trkpt>
      <trkpt lat="47.09009" lon="6.09797">
        <ele>504</ele>
        <time>2022-06-05T02:29:43Z</time>
      </trkpt>
      <trkpt lat="47.09038" lon="6.0976">
        <ele>503</ele>
        <time>2022-06-05T02:30:14Z</time>
      </trkpt>
      <trkpt lat="47.09067" lon="6.09725">
        <ele>502</ele>
        <time>2022-06-05T02:30:44Z</time>
      </trkpt>
      <trkpt lat="47.09091" lon="6.09694">
        <ele>501</ele>
        <time>2022-06-05T02:31:10Z</time>
      </trkpt>
      <trkpt lat="47.09158" lon="6.09612">
        <ele>503</ele>
        <time>2022-06-05T02:32:20Z</time>
      </trkpt>
      <trkpt lat="47.0913" lon="6.09603">
        <ele>502</ele>
        <time>2022-06-05T02:32:43Z</time>
      </trkpt>
      <trkpt lat="47.09109" lon="6.09585">
        <ele>501</ele>
        <time>2022-06-05T02:33:02Z</time>
      </trkpt>
      <trkpt lat="47.09096" lon="6.09565">
        <ele>500</ele>
        <time>2022-06-05T02:33:17Z</time>
      </trkpt>
      <trkpt lat="47.09091" lon="6.09507">
        <ele>499</ele>
        <time>2022-06-05T02:33:49Z</time>
      </trkpt>
      <trkpt lat="47.09097" lon="6.09471">
        <ele>497</ele>
        <time>2022-06-05T02:34:09Z</time>
      </trkpt>
      <trkpt lat="47.09101" lon="6.09456">
        <ele>495</ele>
        <time>2022-06-05T02:34:18Z</time>
      </trkpt>
      <trkpt lat="47.09111" lon="6.09455">
        <ele>494</ele>
        <time>2022-06-05T02:34:26Z</time>
      </trkpt>
      <trkpt lat="47.0912" lon="6.09487">
        <ele>495</ele>
        <time>2022-06-05T02:34:45Z</time>
      </trkpt>
      <trkpt lat="47.09126" lon="6.09501">
        <ele>496</ele>
        <time>2022-06-05T02:34:54Z</time>
      </trkpt>
      <trkpt lat="47.09134" lon="6.09499">
        <ele>496</ele>
        <time>2022-06-05T02:35:01Z</time>
      </trkpt>
      <trkpt lat="47.09152" lon="6.09462">
        <ele>488</ele>
        <time>2022-06-05T02:35:25Z</time>
      </trkpt>
      <trkpt lat="47.09193" lon="6.09387">
        <ele>471</ele>
        <time>2022-06-05T02:36:18Z</time>
      </trkpt>
      <trkpt lat="47.09223" lon="6.09319">
        <ele>452</ele>
        <time>2022-06-05T02:37:02Z</time>
      </trkpt>
      <trkpt lat="47.09304" lon="6.09127">
        <ele>415</ele>
        <time>2022-06-05T02:39:05Z</time>
      </trkpt>
      <trkpt lat="47.09348" lon="6.09041">
        <ele>409</ele>
        <time>2022-06-05T02:40:04Z</time>
      </trkpt>
      <trkpt lat="47.09374" lon="6.08984">
        <ele>413</ele>
        <time>2022-06-05T02:40:42Z</time>
      </trkpt>
      <trkpt lat="47.09394" lon="6.08918">
        <ele>416</ele>
        <time>2022-06-05T02:41:21Z</time>
      </trkpt>
      <trkpt lat="47.09407" lon="6.08858">
        <ele>422</ele>
        <time>2022-06-05T02:41:55Z</time>
      </trkpt>
      <trkpt lat="47.09427" lon="6.08719">
        <ele>428</ele>
        <time>2022-06-05T02:43:13Z</time>
      </trkpt>
      <trkpt lat="47.09454" lon="6.0859">
        <ele>441</ele>
        <time>2022-06-05T02:44:27Z</time>
      </trkpt>
      <trkpt lat="47.09481" lon="6.0852">
        <ele>452</ele>
        <time>2022-06-05T02:45:10Z</time>
      </trkpt>
      <trkpt lat="47.09479" lon="6.08465">
        <ele>449</ele>
        <time>2022-06-05T02:45:40Z</time>
      </trkpt>
      <trkpt lat="47.09479" lon="6.08404">
        <ele>447</ele>
        <time>2022-06-05T02:46:14Z</time>
      </trkpt>
      <trkpt lat="47.09478" lon="6.08341">
        <ele>442</ele>
        <time>2022-06-05T02:46:48Z</time>
      </trkpt>
      <trkpt lat="47.09478" lon="6.08233">
        <ele>437</ele>
        <time>2022-06-05T02:47:47Z</time>
      </trkpt>
      <trkpt lat="47.0948" lon="6.08148">
        <ele>427</ele>
        <time>2022-06-05T02:48:33Z</time>
      </trkpt>
      <trkpt lat="47.09483" lon="6.08123">
        <ele>424</ele>
        <time>2022-06-05T02:48:47Z</time>
      </trkpt>
      <trkpt lat="47.09486" lon="6.08108">
        <ele>422</ele>
        <time>2022-06-05T02:48:56Z</time>
      </trkpt>
      <trkpt lat="47.0949" lon="6.08096">
        <ele>421</ele>
        <time>2022-06-05T02:49:03Z</time>
      </trkpt>
      <trkpt lat="47.09496" lon="6.08083">
        <ele>420</ele>
        <time>2022-06-05T02:49:12Z</time>
      </trkpt>
      <trkpt lat="47.09508" lon="6.08066">
        <ele>418</ele>
        <time>2022-06-05T02:49:25Z</time>
      </trkpt>
      <trkpt lat="47.09536" lon="6.08032">
        <ele>411</ele>
        <time>2022-06-05T02:49:54Z</time>
      </trkpt>
      <trkpt lat="47.09563" lon="6.0803">
        <ele>412</ele>
        <time>2022-06-05T02:50:16Z</time>
      </trkpt>
      <trkpt lat="47.0959" lon="6.0804">
        <ele>414</ele>
        <time>2022-06-05T02:50:38Z</time>
      </trkpt>
      <trkpt lat="47.09623" lon="6.08086">
        <ele>419</ele>
        <time>2022-06-05T02:51:15Z</time>
      </trkpt>
      <trkpt lat="47.09652" lon="6.08116">
        <ele>417</ele>
        <time>2022-06-05T02:51:43Z</time>
      </trkpt>
      <trkpt lat="47.09641" lon="6.08165">
        <ele>430</ele>
        <time>2022-06-05T02:52:11Z</time>
      </trkpt>
      <trkpt lat="47.0963" lon="6.08241">
        <ele>446</ele>
        <time>2022-06-05T02:52:54Z</time>
      </trkpt>
      <trkpt lat="47.09623" lon="6.08313">
        <ele>460</ele>
        <time>2022-06-05T02:53:33Z</time>
      </trkpt>
      <trkpt lat="47.09623" lon="6.08347">
        <ele>465</ele>
        <time>2022-06-05T02:53:52Z</time>
      </trkpt>
      <trkpt lat="47.09628" lon="6.08373">
        <ele>468</ele>
        <time>2022-06-05T02:54:07Z</time>
      </trkpt>
      <trkpt lat="47.09638" lon="6.08394">
        <ele>469</ele>
        <time>2022-06-05T02:54:21Z</time>
      </trkpt>
      <trkpt lat="47.09649" lon="6.08412">
        <ele>468</ele>
        <time>2022-06-05T02:54:34Z</time>
      </trkpt>
      <trkpt lat="47.09659" lon="6.0844">
        <ele>471</ele>
        <time>2022-06-05T02:54:51Z</time>
      </trkpt>
      <trkpt lat="47.09657" lon="6.0845">
        <ele>473</ele>
        <time>2022-06-05T02:54:57Z</time>
      </trkpt>
      <trkpt lat="47.0965" lon="6.08453">
        <ele>475</ele>
        <time>2022-06-05T02:55:03Z</time>
      </trkpt>
      <trkpt lat="47.09631" lon="6.08436">
        <ele>477</ele>
        <time>2022-06-05T02:55:20Z</time>
      </trkpt>
      <trkpt lat="47.09604" lon="6.08411">
        <ele>481</ele>
        <time>2022-06-05T02:55:46Z</time>
      </trkpt>
      <trkpt lat="47.09591" lon="6.08422">
        <ele>486</ele>
        <time>2022-06-05T02:55:58Z</time>
      </trkpt>
      <trkpt lat="47.09565" lon="6.08439">
        <ele>483</ele>
        <time>2022-06-05T02:56:21Z</time>
      </trkpt>
      <trkpt lat="47.09567" lon="6.0846">
        <ele>485</ele>
        <time>2022-06-05T02:56:32Z</time>
      </trkpt>
      <trkpt lat="47.09559" lon="6.08479">
        <ele>483</ele>
        <time>2022-06-05T02:56:45Z</time>
      </trkpt>
      <trkpt lat="47.09563" lon="6.08502">
        <ele>486</ele>
        <time>2022-06-05T02:56:58Z</time>
      </trkpt>
      <trkpt lat="47.09567" lon="6.08548">
        <ele>492</ele>
        <time>2022-06-05T02:57:23Z</time>
      </trkpt>
      <trkpt lat="47.09569" lon="6.08595">
        <ele>496</ele>
        <time>2022-06-05T02:57:49Z</time>
      </trkpt>
      <trkpt lat="47.09573" lon="6.08707">
        <ele>499</ele>
        <time>2022-06-05T02:58:50Z</time>
      </trkpt>
      <trkpt lat="47.09576" lon="6.08757">
        <ele>500</ele>
        <time>2022-06-05T02:59:17Z</time>
      </trkpt>
      <trkpt lat="47.09577" lon="6.08787">
        <ele>500</ele>
        <time>2022-06-05T02:59:33Z</time>
      </trkpt>
      <trkpt lat="47.09577" lon="6.08852">
        <ele>500</ele>
        <time>2022-06-05T03:00:09Z</time>
      </trkpt>
      <trkpt lat="47.09576" lon="6.08881">
        <ele>499</ele>
        <time>2022-06-05T03:00:25Z</time>
      </trkpt>
      <trkpt lat="47.09571" lon="6.08925">
        <ele>497</ele>
        <time>2022-06-05T03:00:49Z</time>
      </trkpt>
      <trkpt lat="47.09549" lon="6.09061">
        <ele>496</ele>
        <time>2022-06-05T03:02:05Z</time>
      </trkpt>
      <trkpt lat="47.09548" lon="6.09064">
        <ele>496</ele>
        <time>2022-06-05T03:02:07Z</time>
      </trkpt>
      <trkpt lat="47.09536" lon="6.09133">
        <ele>499</ele>
        <time>2022-06-05T03:02:46Z</time>
      </trkpt>
      <trkpt lat="47.09532" lon="6.09148">
        <ele>499</ele>
        <time>2022-06-05T03:02:55Z</time>
      </trkpt>
      <trkpt lat="47.09522" lon="6.0917">
        <ele>500</ele>
        <time>2022-06-05T03:03:09Z</time>
      </trkpt>
      <trkpt lat="47.09511" lon="6.09186">
        <ele>501</ele>
        <time>2022-06-05T03:03:22Z</time>
      </trkpt>
      <trkpt lat="47.095" lon="6.09199">
        <ele>501</ele>
        <time>2022-06-05T03:03:33Z</time>
      </trkpt>
      <trkpt lat="47.0948" lon="6.09219">
        <ele>497</ele>
        <time>2022-06-05T03:03:52Z</time>
      </trkpt>
      <trkpt lat="47.09468" lon="6.09241">
        <ele>496</ele>
        <time>2022-06-05T03:04:08Z</time>
      </trkpt>
      <trkpt lat="47.09442" lon="6.09273">
        <ele>495</ele>
        <time>2022-06-05T03:04:35Z</time>
      </trkpt>
      <trkpt lat="47.09432" lon="6.09291">
        <ele>496</ele>
        <time>2022-06-05T03:04:48Z</time>
      </trkpt>
      <trkpt lat="47.09425" lon="6.09301">
        <ele>496</ele>
        <time>2022-06-05T03:04:56Z</time>
      </trkpt>
      <trkpt lat="47.09418" lon="6.09314">
        <ele>497</ele>
        <time>2022-06-05T03:05:05Z</time>
      </trkpt>
      <trkpt lat="47.09416" lon="6.09319">
        <ele>498</ele>
        <time>2022-06-05T03:05:08Z</time>
      </trkpt>
      <trkpt lat="47.09412" lon="6.09326">
        <ele>498</ele>
        <time>2022-06-05T03:05:13Z</time>
      </trkpt>
      <trkpt lat="47.09412" lon="6.09328">
        <ele>498</ele>
        <time>2022-06-05T03:05:14Z</time>
      </trkpt>
      <trkpt lat="47.09404" lon="6.09337">
        <ele>497</ele>
        <time>2022-06-05T03:05:22Z</time>
      </trkpt>
      <trkpt lat="47.09396" lon="6.09344">
        <ele>496</ele>
        <time>2022-06-05T03:05:29Z</time>
      </trkpt>
      <trkpt lat="47.09383" lon="6.09361">
        <ele>496</ele>
        <time>2022-06-05T03:05:43Z</time>
      </trkpt>
      <trkpt lat="47.09377" lon="6.09368">
        <ele>496</ele>
        <time>2022-06-05T03:05:49Z</time>
      </trkpt>
      <trkpt lat="47.09368" lon="6.09376">
        <ele>496</ele>
        <time>2022-06-05T03:05:58Z</time>
      </trkpt>
      <trkpt lat="47.09359" lon="6.09383">
        <ele>497</ele>
        <time>2022-06-05T03:06:06Z</time>
      </trkpt>
      <trkpt lat="47.09351" lon="6.09392">
        <ele>497</ele>
        <time>2022-06-05T03:06:14Z</time>
      </trkpt>
      <trkpt lat="47.09381" lon="6.09463">
        <ele>507</ele>
        <time>2022-06-05T03:07:00Z</time>
      </trkpt>
      <trkpt lat="47.09391" lon="6.09493">
        <ele>509</ele>
        <time>2022-06-05T03:07:18Z</time>
      </trkpt>
      <trkpt lat="47.09396" lon="6.09499">
        <ele>509</ele>
        <time>2022-06-05T03:07:23Z</time>
      </trkpt>
      <trkpt lat="47.09413" lon="6.09521">
        <ele>510</ele>
        <time>2022-06-05T03:07:41Z</time>
      </trkpt>
      <trkpt lat="47.09422" lon="6.09526">
        <ele>511</ele>
        <time>2022-06-05T03:07:49Z</time>
      </trkpt>
      <trkpt lat="47.09444" lon="6.09536">
        <ele>511</ele>
        <time>2022-06-05T03:08:07Z</time>
      </trkpt>
      <trkpt lat="47.09458" lon="6.09555">
        <ele>512</ele>
        <time>2022-06-05T03:08:23Z</time>
      </trkpt>
      <trkpt lat="47.09475" lon="6.09576">
        <ele>512</ele>
        <time>2022-06-05T03:08:41Z</time>
      </trkpt>
      <trkpt lat="47.09509" lon="6.0962">
        <ele>512</ele>
        <time>2022-06-05T03:09:17Z</time>
      </trkpt>
      <trkpt lat="47.09513" lon="6.09624">
        <ele>512</ele>
        <time>2022-06-05T03:09:21Z</time>
      </trkpt>
      <trkpt lat="47.09531" lon="6.09638">
        <ele>512</ele>
        <time>2022-06-05T03:09:37Z</time>
      </trkpt>
      <trkpt lat="47.0955" lon="6.09654">
        <ele>511</ele>
        <time>2022-06-05T03:09:55Z</time>
      </trkpt>
      <trkpt lat="47.0957" lon="6.0967">
        <ele>511</ele>
        <time>2022-06-05T03:10:13Z</time>
      </trkpt>
      <trkpt lat="47.09584" lon="6.09676">
        <ele>510</ele>
        <time>2022-06-05T03:10:25Z</time>
      </trkpt>
      <trkpt lat="47.09605" lon="6.09686">
        <ele>510</ele>
        <time>2022-06-05T03:10:42Z</time>
      </trkpt>
      <trkpt lat="47.09623" lon="6.09707">
        <ele>510</ele>
        <time>2022-06-05T03:11:01Z</time>
      </trkpt>
      <trkpt lat="47.0964" lon="6.09728">
        <ele>511</ele>
        <time>2022-06-05T03:11:18Z</time>
      </trkpt>
      <trkpt lat="47.0965" lon="6.09753">
        <ele>511</ele>
        <time>2022-06-05T03:11:34Z</time>
      </trkpt>
      <trkpt lat="47.09661" lon="6.09782">
        <ele>512</ele>
        <time>2022-06-05T03:11:52Z</time>
      </trkpt>
      <trkpt lat="47.09659" lon="6.09848">
        <ele>515</ele>
        <time>2022-06-05T03:12:28Z</time>
      </trkpt>
      <trkpt lat="47.09616" lon="6.09911">
        <ele>515</ele>
        <time>2022-06-05T03:13:17Z</time>
      </trkpt>
      <trkpt lat="47.09595" lon="6.09995">
        <ele>518</ele>
        <time>2022-06-05T03:14:06Z</time>
      </trkpt>
      <trkpt lat="47.09628" lon="6.1008">
        <ele>520</ele>
        <time>2022-06-05T03:14:59Z</time>
      </trkpt>
      <trkpt lat="47.09654" lon="6.10144">
        <ele>520</ele>
        <time>2022-06-05T03:15:40Z</time>
      </trkpt>
      <trkpt lat="47.09658" lon="6.10164">
        <ele>520</ele>
        <time>2022-06-05T03:15:51Z</time>
      </trkpt>
      <trkpt lat="47.09665" lon="6.10191">
        <ele>521</ele>
        <time>2022-06-05T03:16:07Z</time>
      </trkpt>
      <trkpt lat="47.09665" lon="6.10211">
        <ele>521</ele>
        <time>2022-06-05T03:16:18Z</time>
      </trkpt>
      <trkpt lat="47.09589" lon="6.1038">
        <ele>525</ele>
        <time>2022-06-05T03:18:09Z</time>
      </trkpt>
      <trkpt lat="47.09582" lon="6.10397">
        <ele>525</ele>
        <time>2022-06-05T03:18:19Z</time>
      </trkpt>
      <trkpt lat="47.09566" lon="6.10494">
        <ele>526</ele>
        <time>2022-06-05T03:19:14Z</time>
      </trkpt>
      <trkpt lat="47.09569" lon="6.10513">
        <ele>525</ele>
        <time>2022-06-05T03:19:25Z</time>
      </trkpt>
      <trkpt lat="47.09576" lon="6.10505">
        <ele>525</ele>
        <time>2022-06-05T03:19:32Z</time>
      </trkpt>
      <trkpt lat="47.09628" lon="6.10517">
        <ele>524</ele>
        <time>2022-06-05T03:20:14Z</time>
      </trkpt>
      <trkpt lat="47.09687" lon="6.10515">
        <ele>524</ele>
        <time>2022-06-05T03:21:01Z</time>
      </trkpt>
      <trkpt lat="47.09767" lon="6.10474">
        <ele>524</ele>
        <time>2022-06-05T03:22:09Z</time>
      </trkpt>
      <trkpt lat="47.09879" lon="6.10433">
        <ele>522</ele>
        <time>2022-06-05T03:23:42Z</time>
      </trkpt>
      <trkpt lat="47.09881" lon="6.10432">
        <ele>522</ele>
        <time>2022-06-05T03:23:43Z</time>
      </trkpt>
      <trkpt lat="47.09947" lon="6.10441">
        <ele>520</ele>
        <time>2022-06-05T03:24:36Z</time>
      </trkpt>
      <trkpt lat="47.10053" lon="6.10489">
        <ele>516</ele>
        <time>2022-06-05T03:26:05Z</time>
      </trkpt>
      <trkpt lat="47.10132" lon="6.10519">
        <ele>506</ele>
        <time>2022-06-05T03:27:11Z</time>
      </trkpt>
      <trkpt lat="47.10183" lon="6.10548">
        <ele>495</ele>
        <time>2022-06-05T03:27:54Z</time>
      </trkpt>
      <trkpt lat="47.10197" lon="6.10579">
        <ele>490</ele>
        <time>2022-06-05T03:28:15Z</time>
      </trkpt>
      <trkpt lat="47.10211" lon="6.10617">
        <ele>489</ele>
        <time>2022-06-05T03:28:38Z</time>
      </trkpt>
      <trkpt lat="47.10253" lon="6.10649">
        <ele>489</ele>
        <time>2022-06-05T03:29:16Z</time>
      </trkpt>
      <trkpt lat="47.10269" lon="6.10662">
        <ele>490</ele>
        <time>2022-06-05T03:29:31Z</time>
      </trkpt>
      <trkpt lat="47.10298" lon="6.10732">
        <ele>498</ele>
        <time>2022-06-05T03:30:16Z</time>
      </trkpt>
      <trkpt lat="47.10321" lon="6.10751">
        <ele>500</ele>
        <time>2022-06-05T03:30:37Z</time>
      </trkpt>
      <trkpt lat="47.10353" lon="6.10751">
        <ele>501</ele>
        <time>2022-06-05T03:31:02Z</time>
      </trkpt>
      <trkpt lat="47.10408" lon="6.10738">
        <ele>499</ele>
        <time>2022-06-05T03:31:47Z</time>
      </trkpt>
      <trkpt lat="47.10469" lon="6.10735">
        <ele>498</ele>
        <time>2022-06-05T03:32:36Z</time>
      </trkpt>
      <trkpt lat="47.10509" lon="6.10719">
        <ele>489</ele>
        <time>2022-06-05T03:33:09Z</time>
      </trkpt>
      <trkpt lat="47.10527" lon="6.10722">
        <ele>486</ele>
        <time>2022-06-05T03:33:24Z</time>
      </trkpt>
      <trkpt lat="47.1055" lon="6.10761">
        <ele>494</ele>
        <time>2022-06-05T03:33:52Z</time>
      </trkpt>
      <trkpt lat="47.10594" lon="6.1092">
        <ele>504</ele>
        <time>2022-06-05T03:35:26Z</time>
      </trkpt>
      <trkpt lat="47.10589" lon="6.10934">
        <ele>507</ele>
        <time>2022-06-05T03:35:34Z</time>
      </trkpt>
      <trkpt lat="47.10537" lon="6.10951">
        <ele>508</ele>
        <time>2022-06-05T03:36:17Z</time>
      </trkpt>
      <trkpt lat="47.10499" lon="6.10991">
        <ele>505</ele>
        <time>2022-06-05T03:36:54Z</time>
      </trkpt>
      <trkpt lat="47.10509" lon="6.10999">
        <ele>504</ele>
        <time>2022-06-05T03:37:03Z</time>
      </trkpt>
      <trkpt lat="47.10518" lon="6.11009">
        <ele>504</ele>
        <time>2022-06-05T03:37:12Z</time>
      </trkpt>
      <trkpt lat="47.10521" lon="6.11019">
        <ele>503</ele>
        <time>2022-06-05T03:37:18Z</time>
      </trkpt>
      <trkpt lat="47.10521" lon="6.11044">
        <ele>501</ele>
        <time>2022-06-05T03:37:32Z</time>
      </trkpt>
      <trkpt lat="47.10518" lon="6.11061">
        <ele>499</ele>
        <time>2022-06-05T03:37:42Z</time>
      </trkpt>
      <trkpt lat="47.1051" lon="6.11094">
        <ele>496</ele>
        <time>2022-06-05T03:38:01Z</time>
      </trkpt>
      <trkpt lat="47.10497" lon="6.11134">
        <ele>493</ele>
        <time>2022-06-05T03:38:25Z</time>
      </trkpt>
      <trkpt lat="47.10491" lon="6.11151">
        <ele>493</ele>
        <time>2022-06-05T03:38:35Z</time>
      </trkpt>
      <trkpt lat="47.10488" lon="6.11162">
        <ele>492</ele>
        <time>2022-06-05T03:38:42Z</time>
      </trkpt>
      <trkpt lat="47.10466" lon="6.11224">
        <ele>490</ele>
        <time>2022-06-05T03:39:20Z</time>
      </trkpt>
      <trkpt lat="47.10453" lon="6.11271">
        <ele>487</ele>
        <time>2022-06-05T03:39:48Z</time>
      </trkpt>
      <trkpt lat="47.10443" lon="6.11288">
        <ele>486</ele>
        <time>2022-06-05T03:40:00Z</time>
      </trkpt>
      <trkpt lat="47.10433" lon="6.11304">
        <ele>485</ele>
        <time>2022-06-05T03:40:12Z</time>
      </trkpt>
      <trkpt lat="47.10413" lon="6.11311">
        <ele>486</ele>
        <time>2022-06-05T03:40:28Z</time>
      </trkpt>
      <trkpt lat="47.10392" lon="6.11321">
        <ele>485</ele>
        <time>2022-06-05T03:40:46Z</time>
      </trkpt>
      <trkpt lat="47.10359" lon="6.1132">
        <ele>486</ele>
        <time>2022-06-05T03:41:12Z</time>
      </trkpt>
      <trkpt lat="47.1032" lon="6.11336">
        <ele>485</ele>
        <time>2022-06-05T03:41:45Z</time>
      </trkpt>
      <trkpt lat="47.10294" lon="6.1136">
        <ele>483</ele>
        <time>2022-06-05T03:42:10Z</time>
      </trkpt>
      <trkpt lat="47.10272" lon="6.11373">
        <ele>484</ele>
        <time>2022-06-05T03:42:29Z</time>
      </trkpt>
      <trkpt lat="47.10263" lon="6.11394">
        <ele>483</ele>
        <time>2022-06-05T03:42:42Z</time>
      </trkpt>
      <trkpt lat="47.10295" lon="6.11475">
        <ele>484</ele>
        <time>2022-06-05T03:43:33Z</time>
      </trkpt>
      <trkpt lat="47.10321" lon="6.11546">
        <ele>488</ele>
        <time>2022-06-05T03:44:17Z</time>
      </trkpt>
      <trkpt lat="47.1032" lon="6.1161">
        <ele>496</ele>
        <time>2022-06-05T03:44:52Z</time>
      </trkpt>
      <trkpt lat="47.10353" lon="6.11709">
        <ele>494</ele>
        <time>2022-06-05T03:45:52Z</time>
      </trkpt>
      <trkpt lat="47.10351" lon="6.1175">
        <ele>498</ele>
        <time>2022-06-05T03:46:15Z</time>
      </trkpt>
      <trkpt lat="47.10353" lon="6.11709">
        <ele>494</ele>
        <time>2022-06-05T03:46:37Z</time>
      </trkpt>
      <trkpt lat="47.103" lon="6.11794">
        <ele>508</ele>
        <time>2022-06-05T03:47:40Z</time>
      </trkpt>
      <trkpt lat="47.10275" lon="6.11807">
        <ele>510</ele>
        <time>2022-06-05T03:48:01Z</time>
      </trkpt>
      <trkpt lat="47.10238" lon="6.1181">
        <ele>512</ele>
        <time>2022-06-05T03:48:31Z</time>
      </trkpt>
      <trkpt lat="47.10196" lon="6.11804">
        <ele>512</ele>
        <time>2022-06-05T03:49:05Z</time>
      </trkpt>
      <trkpt lat="47.10161" lon="6.11809">
        <ele>512</ele>
        <time>2022-06-05T03:49:33Z</time>
      </trkpt>
      <trkpt lat="47.10141" lon="6.11822">
        <ele>512</ele>
        <time>2022-06-05T03:49:50Z</time>
      </trkpt>
      <trkpt lat="47.10119" lon="6.11839">
        <ele>513</ele>
        <time>2022-06-05T03:50:10Z</time>
      </trkpt>
      <trkpt lat="47.10109" lon="6.11848">
        <ele>513</ele>
        <time>2022-06-05T03:50:20Z</time>
      </trkpt>
      <trkpt lat="47.10082" lon="6.11851">
        <ele>513</ele>
        <time>2022-06-05T03:50:41Z</time>
      </trkpt>
      <trkpt lat="47.10054" lon="6.11857">
        <ele>512</ele>
        <time>2022-06-05T03:51:04Z</time>
      </trkpt>
      <trkpt lat="47.09944" lon="6.11919">
        <ele>513</ele>
        <time>2022-06-05T03:52:39Z</time>
      </trkpt>
      <trkpt lat="47.09833" lon="6.1201">
        <ele>513</ele>
        <time>2022-06-05T03:54:20Z</time>
      </trkpt>
      <trkpt lat="47.0979" lon="6.12057">
        <ele>512</ele>
        <time>2022-06-05T03:55:03Z</time>
      </trkpt>
      <trkpt lat="47.09702" lon="6.12097">
        <ele>513</ele>
        <time>2022-06-05T03:56:17Z</time>
      </trkpt>
      <trkpt lat="47.09639" lon="6.12116">
        <ele>514</ele>
        <time>2022-06-05T03:57:09Z</time>
      </trkpt>
      <trkpt lat="47.09596" lon="6.12113">
        <ele>516</ele>
        <time>2022-06-05T03:57:43Z</time>
      </trkpt>
      <trkpt lat="47.0956" lon="6.12127">
        <ele>517</ele>
        <time>2022-06-05T03:58:13Z</time>
      </trkpt>
      <trkpt lat="47.09529" lon="6.12147">
        <ele>517</ele>
        <time>2022-06-05T03:58:40Z</time>
      </trkpt>
      <trkpt lat="47.09512" lon="6.12157">
        <ele>517</ele>
        <time>2022-06-05T03:58:55Z</time>
      </trkpt>
      <trkpt lat="47.09507" lon="6.12176">
        <ele>517</ele>
        <time>2022-06-05T03:59:06Z</time>
      </trkpt>
      <trkpt lat="47.09506" lon="6.122">
        <ele>516</ele>
        <time>2022-06-05T03:59:19Z</time>
      </trkpt>
      <trkpt lat="47.09495" lon="6.12219">
        <ele>516</ele>
        <time>2022-06-05T03:59:33Z</time>
      </trkpt>
      <trkpt lat="47.09486" lon="6.12243">
        <ele>516</ele>
        <time>2022-06-05T03:59:48Z</time>
      </trkpt>
      <trkpt lat="47.09475" lon="6.12288">
        <ele>514</ele>
        <time>2022-06-05T04:00:14Z</time>
      </trkpt>
      <trkpt lat="47.09471" lon="6.12413">
        <ele>499</ele>
        <time>2022-06-05T04:01:22Z</time>
      </trkpt>
      <trkpt lat="47.09437" lon="6.12477">
        <ele>501</ele>
        <time>2022-06-05T04:02:06Z</time>
      </trkpt>
      <trkpt lat="47.09437" lon="6.12496">
        <ele>499</ele>
        <time>2022-06-05T04:02:17Z</time>
      </trkpt>
      <trkpt lat="47.09484" lon="6.12586">
        <ele>484</ele>
        <time>2022-06-05T04:03:19Z</time>
      </trkpt>
      <trkpt lat="47.09488" lon="6.12592">
        <ele>483</ele>
        <time>2022-06-05T04:03:23Z</time>
      </trkpt>
      <trkpt lat="47.09613" lon="6.12889">
        <ele>457</ele>
        <time>2022-06-05T04:06:34Z</time>
      </trkpt>
      <trkpt lat="47.09634" lon="6.12953">
        <ele>452</ele>
        <time>2022-06-05T04:07:13Z</time>
      </trkpt>
      <trkpt lat="47.09645" lon="6.12999">
        <ele>448</ele>
        <time>2022-06-05T04:07:39Z</time>
      </trkpt>
      <trkpt lat="47.09653" lon="6.13067">
        <ele>439</ele>
        <time>2022-06-05T04:08:17Z</time>
      </trkpt>
      <trkpt lat="47.09659" lon="6.13114">
        <ele>430</ele>
        <time>2022-06-05T04:08:43Z</time>
      </trkpt>
      <trkpt lat="47.09671" lon="6.13123">
        <ele>423</ele>
        <time>2022-06-05T04:08:54Z</time>
      </trkpt>
      <trkpt lat="47.09677" lon="6.13101">
        <ele>423</ele>
        <time>2022-06-05T04:09:07Z</time>
      </trkpt>
      <trkpt lat="47.09675" lon="6.12998">
        <ele>431</ele>
        <time>2022-06-05T04:10:03Z</time>
      </trkpt>
      <trkpt lat="47.09672" lon="6.12948">
        <ele>431</ele>
        <time>2022-06-05T04:10:30Z</time>
      </trkpt>
      <trkpt lat="47.09668" lon="6.12909">
        <ele>432</ele>
        <time>2022-06-05T04:10:52Z</time>
      </trkpt>
      <trkpt lat="47.09665" lon="6.12873">
        <ele>430</ele>
        <time>2022-06-05T04:11:12Z</time>
      </trkpt>
      <trkpt lat="47.09664" lon="6.12818">
        <ele>425</ele>
        <time>2022-06-05T04:11:42Z</time>
      </trkpt>
      <trkpt lat="47.09663" lon="6.12811">
        <ele>424</ele>
        <time>2022-06-05T04:11:45Z</time>
      </trkpt>
      <trkpt lat="47.09664" lon="6.12803">
        <ele>423</ele>
        <time>2022-06-05T04:11:50Z</time>
      </trkpt>
      <trkpt lat="47.09665" lon="6.12799">
        <ele>422</ele>
        <time>2022-06-05T04:11:52Z</time>
      </trkpt>
      <trkpt lat="47.09668" lon="6.12796">
        <ele>420</ele>
        <time>2022-06-05T04:11:55Z</time>
      </trkpt>
      <trkpt lat="47.09669" lon="6.12796">
        <ele>420</ele>
        <time>2022-06-05T04:11:56Z</time>
      </trkpt>
      <trkpt lat="47.09674" lon="6.12798">
        <ele>418</ele>
        <time>2022-06-05T04:12:00Z</time>
      </trkpt>
      <trkpt lat="47.09685" lon="6.12819">
        <ele>416</ele>
        <time>2022-06-05T04:12:15Z</time>
      </trkpt>
      <trkpt lat="47.09704" lon="6.12866">
        <ele>413</ele>
        <time>2022-06-05T04:12:44Z</time>
      </trkpt>
      <trkpt lat="47.09718" lon="6.12905">
        <ele>410</ele>
        <time>2022-06-05T04:13:08Z</time>
      </trkpt>
      <trkpt lat="47.09733" lon="6.12955">
        <ele>405</ele>
        <time>2022-06-05T04:13:38Z</time>
      </trkpt>
      <trkpt lat="47.09743" lon="6.12995">
        <ele>401</ele>
        <time>2022-06-05T04:14:01Z</time>
      </trkpt>
      <trkpt lat="47.09751" lon="6.13038">
        <ele>395</ele>
        <time>2022-06-05T04:14:26Z</time>
      </trkpt>
      <trkpt lat="47.09754" lon="6.13082">
        <ele>392</ele>
        <time>2022-06-05T04:14:50Z</time>
      </trkpt>
      <trkpt lat="47.09757" lon="6.13114">
        <ele>390</ele>
        <time>2022-06-05T04:15:08Z</time>
      </trkpt>
      <trkpt lat="47.09757" lon="6.13143">
        <ele>390</ele>
        <time>2022-06-05T04:15:23Z</time>
      </trkpt>
      <trkpt lat="47.0976" lon="6.13163">
        <ele>388</ele>
        <time>2022-06-05T04:15:35Z</time>
      </trkpt>
      <trkpt lat="47.09765" lon="6.1317">
        <ele>386</ele>
        <time>2022-06-05T04:15:40Z</time>
      </trkpt>
      <trkpt lat="47.09769" lon="6.13172">
        <ele>385</ele>
        <time>2022-06-05T04:15:43Z</time>
      </trkpt>
      <trkpt lat="47.09776" lon="6.13169">
        <ele>383</ele>
        <time>2022-06-05T04:15:49Z</time>
      </trkpt>
      <trkpt lat="47.09782" lon="6.13162">
        <ele>382</ele>
        <time>2022-06-05T04:15:55Z</time>
      </trkpt>
      <trkpt lat="47.09791" lon="6.13146">
        <ele>380</ele>
        <time>2022-06-05T04:16:07Z</time>
      </trkpt>
      <trkpt lat="47.09801" lon="6.1312">
        <ele>377</ele>
        <time>2022-06-05T04:16:23Z</time>
      </trkpt>
      <trkpt lat="47.09812" lon="6.13087">
        <ele>375</ele>
        <time>2022-06-05T04:16:43Z</time>
      </trkpt>
      <trkpt lat="47.09819" lon="6.13074">
        <ele>373</ele>
        <time>2022-06-05T04:16:52Z</time>
      </trkpt>
      <trkpt lat="47.09826" lon="6.13068">
        <ele>371</ele>
        <time>2022-06-05T04:16:59Z</time>
      </trkpt>
      <trkpt lat="47.0983" lon="6.13063">
        <ele>370</ele>
        <time>2022-06-05T04:17:03Z</time>
      </trkpt>
      <trkpt lat="47.09838" lon="6.13067">
        <ele>369</ele>
        <time>2022-06-05T04:17:10Z</time>
      </trkpt>
      <trkpt lat="47.09859" lon="6.13082">
        <ele>367</ele>
        <time>2022-06-05T04:17:28Z</time>
      </trkpt>
      <trkpt lat="47.09885" lon="6.131">
        <ele>365</ele>
        <time>2022-06-05T04:17:51Z</time>
      </trkpt>
      <trkpt lat="47.09899" lon="6.13108">
        <ele>364</ele>
        <time>2022-06-05T04:18:03Z</time>
      </trkpt>
      <trkpt lat="47.09947" lon="6.13141">
        <ele>359</ele>
        <time>2022-06-05T04:18:46Z</time>
      </trkpt>
      <trkpt lat="47.09967" lon="6.13156">
        <ele>357</ele>
        <time>2022-06-05T04:19:04Z</time>
      </trkpt>
      <trkpt lat="47.09981" lon="6.13167">
        <ele>356</ele>
        <time>2022-06-05T04:19:17Z</time>
      </trkpt>
      <trkpt lat="47.09999" lon="6.13184">
        <ele>355</ele>
        <time>2022-06-05T04:19:34Z</time>
      </trkpt>
      <trkpt lat="47.10007" lon="6.13194">
        <ele>354</ele>
        <time>2022-06-05T04:19:42Z</time>
      </trkpt>
      <trkpt lat="47.10018" lon="6.13204">
        <ele>353</ele>
        <time>2022-06-05T04:19:53Z</time>
      </trkpt>
      <trkpt lat="47.1003" lon="6.13211">
        <ele>351</ele>
        <time>2022-06-05T04:20:03Z</time>
      </trkpt>
      <trkpt lat="47.10061" lon="6.13223">
        <ele>348</ele>
        <time>2022-06-05T04:20:29Z</time>
      </trkpt>
      <trkpt lat="47.10074" lon="6.13227">
        <ele>347</ele>
        <time>2022-06-05T04:20:39Z</time>
      </trkpt>
      <trkpt lat="47.1008" lon="6.13225">
        <ele>347</ele>
        <time>2022-06-05T04:20:44Z</time>
      </trkpt>
      <trkpt lat="47.10085" lon="6.13231">
        <ele>346</ele>
        <time>2022-06-05T04:20:49Z</time>
      </trkpt>
      <trkpt lat="47.1009" lon="6.13232">
        <ele>346</ele>
        <time>2022-06-05T04:20:53Z</time>
      </trkpt>
      <trkpt lat="47.10101" lon="6.13233">
        <ele>345</ele>
        <time>2022-06-05T04:21:02Z</time>
      </trkpt>
      <trkpt lat="47.1012" lon="6.13231">
        <ele>343</ele>
        <time>2022-06-05T04:21:18Z</time>
      </trkpt>
      <trkpt lat="47.10126" lon="6.13233">
        <ele>342</ele>
        <time>2022-06-05T04:21:22Z</time>
      </trkpt>
      <trkpt lat="47.10153" lon="6.13248">
        <ele>340</ele>
        <time>2022-06-05T04:21:46Z</time>
      </trkpt>
    </trkseg>
  </trk>
</gpx>